M I D A S
Marine Information and Data Acquisition System
Tripno 676 of the Zeeleeuw from 2004-03-26 07:15:52 to 2004-03-26 16:29:29
Back to CruiseResearch ActivitiesStationsMapUnderway DataData graphs

EquipmentUnitsComment
TimeDGPSUTC
LatitudeDGPSDM.mWGS84
LongitudeDGPSDM.mWGS84
TemperatureSBE03/SBE38deg celciusITS90
ConductivitySBE21S/mITS90
SalinitySBE21 Practical Salinity Units
ChlorophylAChelsea fluorimeterg/lCalibrated in Aceton
Missing or incorrect values are displayed as -999
Sea surface data collected by the RV Zeeleeuw from 2004-03-26 07:15:52 to 2004-03-26 16:29:29
                                                                                    Next 1000 lines
Time Latitude Longitude Temperature Conductivity Salinity ChlorophylA
2004-03-26 07:16:02 51°13.594 2°56.099 14.591971 4.193464 33.99995 1.140187
2004-03-26 07:16:07 51°13.594 2°56.099 14.592802 4.193359 33.998995 1.106477
2004-03-26 07:16:12 51°13.594 2°56.099 14.648975 4.193464 34.000608 1.140187
2004-03-26 07:16:17 51°13.593 2°56.099 14.627369 4.193359 33.999652 1.173896
2004-03-26 07:16:22 51°13.593 2°56.099 14.631349 4.193359 33.999652 1.140187
2004-03-26 07:16:27 51°13.593 2°56.099 14.631349 4.193359 33.999652 1.140187
2004-03-26 07:16:32 51°13.593 2°56.098 14.608162 4.193359 33.999652 1.140187
2004-03-26 07:16:37 51°13.593 2°56.096 14.546262 4.193253 33.999354 1.140187
2004-03-26 07:16:42 51°13.594 2°56.094 14.524448 4.193253 33.999354 1.140187
2004-03-26 07:16:47 51°13.595 2°56.09 14.439139 4.193253 34.000012 1.173896
2004-03-26 07:16:52 51°13.596 2°56.085 14.577001 4.193253 33.999354 1.140187
2004-03-26 07:16:57 51°13.597 2°56.08 14.577001 4.193253 33.999354 1.140187
2004-03-26 07:17:02 51°13.598 2°56.075 14.590614 4.193042 33.998758 1.106477
2004-03-26 07:17:07 51°13.6 2°56.068 14.582866 4.193148 33.999714 1.106477
2004-03-26 07:17:12 51°13.602 2°56.061 14.599061 4.193148 33.999714 1.140187
2004-03-26 07:17:17 51°13.605 2°56.054 14.568113 4.193042 33.999416 1.140187
2004-03-26 07:17:22 51°13.607 2°56.046 14.567895 4.193042 33.998758 1.140187
2004-03-26 07:17:27 51°13.61 2°56.038 14.567895 4.193042 33.998758 1.140187
2004-03-26 07:17:32 51°13.612 2°56.029 14.570303 4.192937 33.997803 1.140187
2004-03-26 07:17:37 51°13.615 2°56.02 14.591533 4.192937 33.99846 1.106477
2004-03-26 07:17:42 51°13.618 2°56.011 14.609475 4.192937 33.99846 1.173896
2004-03-26 07:17:47 51°13.621 2°56.002 14.591971 4.192937 33.99846 1.140187
2004-03-26 07:17:52 51°13.625 2°55.992 14.592802 4.192831 33.99882 1.106477
2004-03-26 07:17:57 51°13.628 2°55.982 14.592802 4.192831 33.99882 1.106477
2004-03-26 07:18:02 51°13.631 2°55.971 14.573849 4.192831 33.99882 1.140187
2004-03-26 07:18:07 51°13.634 2°55.961 14.586762 4.192831 33.998162 1.140187
2004-03-26 07:18:12 51°13.638 2°55.95 14.611663 4.192937 34.000433 1.140187
2004-03-26 07:18:17 51°13.641 2°55.94 14.631 4.192726 33.997864 1.140187
2004-03-26 07:18:22 51°13.644 2°55.929 14.627456 4.192726 33.998522 1.140187
2004-03-26 07:18:27 51°13.647 2°55.918 14.627456 4.192726 33.998522 1.140187
2004-03-26 07:18:32 51°13.651 2°55.908 14.618882 4.192726 33.998522 1.140187
2004-03-26 07:18:37 51°13.654 2°55.897 14.619363 4.192726 33.999179 1.140187
2004-03-26 07:18:42 51°13.657 2°55.886 14.632093 4.192726 33.998522 1.140187
2004-03-26 07:18:47 51°13.66 2°55.875 14.630475 4.19262 33.998224 1.173896
2004-03-26 07:18:52 51°13.664 2°55.864 14.627325 4.192621 33.998881 1.140187
2004-03-26 07:18:57 51°13.667 2°55.854 14.627325 4.192621 33.998881 1.140187
2004-03-26 07:19:02 51°13.67 2°55.843 14.632618 4.192515 33.997925 1.140187
2004-03-26 07:19:07 51°13.672 2°55.832 14.649631 4.192515 33.998583 1.140187
2004-03-26 07:19:12 51°13.675 2°55.821 14.63826 4.192515 33.99924 1.140187
2004-03-26 07:19:17 51°13.677 2°55.811 14.633624 4.19241 33.997627 1.140187
2004-03-26 07:19:22 51°13.68 2°55.8 14.658376 4.19241 33.998285 1.140187
2004-03-26 07:19:27 51°13.682 2°55.791 14.658376 4.19241 33.998285 1.140187
2004-03-26 07:19:32 51°13.684 2°55.782 14.626581 4.19241 33.998285 1.173896
2004-03-26 07:19:37 51°13.685 2°55.775 14.670006 4.192515 33.998583 1.140187
2004-03-26 07:19:42 51°13.687 2°55.769 14.669918 4.19241 33.998285 1.140187
2004-03-26 07:19:47 51°13.687 2°55.765 14.689282 4.19241 33.998285 1.140187
2004-03-26 07:19:52 51°13.688 2°55.763 14.733452 4.192304 33.997329 1.140187
2004-03-26 07:19:57 51°13.689 2°55.762 14.733452 4.192304 33.997329 1.140187
2004-03-26 07:20:02 51°13.689 2°55.763 14.715587 4.192304 33.996672 1.173896
2004-03-26 07:20:07 51°13.69 2°55.765 14.729609 4.192304 33.997987 1.140187
2004-03-26 07:20:12 51°13.691 2°55.766 14.7148 4.192304 33.997987 1.140187
2004-03-26 07:20:17 51°13.692 2°55.767 13.914126 4.192409 33.941841 4.039195
2004-03-26 07:20:22 51°13.692 2°55.767 11.783588 4.040684 32.705285 5.724665
2004-03-26 07:20:27 51°13.692 2°55.765 11.783588 4.040684 32.705285 5.724665
2004-03-26 07:20:32 51°13.691 2°55.763 10.172817 2.385228 18.248022 14.4554
2004-03-26 07:20:37 51°13.69 2°55.76 9.397993 3.657109 28.664915 19.275845
2004-03-26 07:20:42 51°13.689 2°55.756 9.025566 3.907855 31.625648 13.174443
2004-03-26 07:20:47 51°13.688 2°55.753 8.780244 3.716781 30.859382 11.65752
2004-03-26 07:20:52 51°13.687 2°55.749 8.672243 3.413037 29.31805 15.06217
2004-03-26 07:20:57 51°13.686 2°55.747 8.672243 3.413037 29.31805 15.06217
2004-03-26 07:21:02 51°13.686 2°55.745 8.564588 3.228206 28.434977 15.500392
2004-03-26 07:21:07 51°13.686 2°55.744 8.475578 3.106386 27.842243 13.612665
2004-03-26 07:21:12 51°13.687 2°55.744 8.470824 3.05196 27.657314 13.410409
2004-03-26 07:21:17 51°13.689 2°55.745 8.454543 3.003328 27.440548 13.477828
2004-03-26 07:21:22 51°13.692 2°55.746 8.330741 2.964488 27.168029 11.927195
2004-03-26 07:21:27 51°13.695 2°55.746 8.330741 2.964488 27.168029 11.927195
2004-03-26 07:21:32 51°13.699 2°55.746 8.301378 2.9507 27.142946 11.826067
2004-03-26 07:21:37 51°13.703 2°55.745 8.31765 2.910074 26.78647 12.567674
2004-03-26 07:21:42 51°13.707 2°55.744 8.269401 2.92944 27.025293 12.331708
2004-03-26 07:21:47 51°13.713 2°55.742 8.242661 2.928915 27.083141 12.23058
2004-03-26 07:21:52 51°13.718 2°55.738 8.213113 2.91418 26.980893 11.960905
2004-03-26 07:21:57 51°13.722 2°55.734 8.213113 2.91418 26.980893 11.960905
2004-03-26 07:22:02 51°13.727 2°55.729 8.225551 2.898393 26.852505 12.601383
2004-03-26 07:22:07 51°13.731 2°55.725 8.206459 2.871978 26.602829 12.297999
2004-03-26 07:22:12 51°13.736 2°55.72 8.224394 2.849352 26.401723 12.399127
2004-03-26 07:22:17 51°13.739 2°55.713 8.191992 2.823149 26.148505 12.095742
2004-03-26 07:22:22 51°13.745 2°55.708 8.216777 2.824201 26.177105 12.80364
2004-03-26 07:22:27 51°13.75 2°55.702 8.216777 2.824201 26.177105 12.80364
2004-03-26 07:22:39 51°13.764 2°55.686 8.251142 2.868506 26.663846 12.938477
2004-03-26 07:22:41 51°13.766 2°55.683 8.240348 2.825991 26.228725 13.410409
2004-03-26 07:22:47 51°13.776 2°55.676 8.240348 2.825991 26.228725 13.410409
2004-03-26 07:22:51 51°13.783 2°55.671 8.255671 2.83683 26.334604 13.073315
2004-03-26 07:22:57 51°13.793 2°55.663 8.232925 2.807049 26.017366 12.196871
2004-03-26 07:23:01 51°13.799 2°55.658 8.221309 2.770221 25.64056 11.65752
2004-03-26 07:23:07 51°13.809 2°55.65 8.240396 2.752545 25.468329 12.062033
2004-03-26 07:23:11 51°13.816 2°55.645 8.240396 2.752545 25.468329 12.062033
2004-03-26 07:23:17 51°13.827 2°55.637 8.245697 2.749915 25.440945 12.062033
2004-03-26 07:23:21 51°13.834 2°55.632 8.226949 2.706568 25.007127 12.601383
2004-03-26 07:23:27 51°13.845 2°55.624 8.222707 2.75486 25.50633 11.556392
2004-03-26 07:23:32 51°13.855 2°55.617 8.227527 2.756333 25.520137 12.432836
2004-03-26 07:23:36 51°13.863 2°55.612 8.243528 2.778008 25.735069 12.904768
2004-03-26 07:23:41 51°13.872 2°55.605 8.243528 2.778008 25.735069 12.904768
2004-03-26 07:23:45 51°13.88 2°55.6 8.219332 2.790003 25.864762 12.365418
2004-03-26 07:23:51 51°13.891 2°55.591 8.228009 2.813153 26.109207 12.432836
2004-03-26 07:23:57 51°13.902 2°55.582 8.190883 2.838724 26.373254 11.859777
2004-03-26 07:24:01 51°13.91 2°55.576 8.20212 2.838303 26.367079 10.612529
2004-03-26 07:24:07 51°13.921 2°55.568 8.206556 2.863455 26.630314 11.859777
2004-03-26 07:24:11 51°13.929 2°55.562 8.206556 2.863455 26.630314 11.859777
2004-03-26 07:24:17 51°13.941 2°55.554 8.161939 2.873768 26.737942 11.219298
2004-03-26 07:24:21 51°13.949 2°55.548 8.187314 2.899763 27.011072 11.522683
2004-03-26 07:24:27 51°13.961 2°55.54 8.141284 2.919445 27.221017 11.253007
2004-03-26 07:24:31 51°13.97 2°55.534 8.130182 2.93839 27.421102 11.556392
2004-03-26 07:24:37 51°13.982 2°55.526 8.130327 2.948179 27.533602 11.320426
2004-03-26 07:24:41 51°13.99 2°55.521 8.130327 2.948179 27.533602 11.320426
2004-03-26 07:24:47 51°14.002 2°55.512 8.131292 2.977968 27.849298 12.196871
2004-03-26 07:24:52 51°14.012 2°55.505 8.141574 3.017443 28.270472 12.095742
2004-03-26 07:24:57 51°14.022 2°55.498 8.120188 3.046287 28.577871 12.163161
2004-03-26 07:25:01 51°14.03 2°55.492 8.10633 3.068396 28.813225 12.972187
2004-03-26 07:25:07 51°14.042 2°55.483 8.100583 3.085451 28.993 12.972187
2004-03-26 07:25:12 51°14.052 2°55.476 8.100583 3.085451 28.993 12.972187
2004-03-26 07:25:17 51°14.062 2°55.469 8.093869 3.11072 29.254866 12.23058
2004-03-26 07:25:21 51°14.07 2°55.463 8.114056 3.120406 29.36603 13.241862
2004-03-26 07:25:27 51°14.082 2°55.454 8.117919 3.125671 29.431974 13.208153
2004-03-26 07:25:32 51°14.093 2°55.445 8.102515 3.126408 29.447327 12.331708
2004-03-26 07:25:37 51°14.104 2°55.437 8.097926 3.135463 29.54936 12.264289
2004-03-26 07:25:41 51°14.113 2°55.43 8.097926 3.135463 29.54936 12.264289
2004-03-26 07:25:47 51°14.127 2°55.419 8.107102 3.096928 29.143961 13.275571
2004-03-26 07:25:51 51°14.137 2°55.411 8.108889 3.130409 29.491798 13.241862
2004-03-26 07:25:55 51°14.147 2°55.403 8.106958 3.122934 29.418119 12.736221
2004-03-26 07:26:01 51°14.161 2°55.39 8.104012 3.1163 29.348345 12.871059
2004-03-26 07:26:07 51°14.176 2°55.376 8.080488 3.10335 29.212853 13.039606
2004-03-26 07:26:12 51°14.187 2°55.363 8.080488 3.10335 29.212853 13.039606
2004-03-26 07:26:17 51°14.199 2°55.35 8.084208 3.091032 29.086091 13.005896
2004-03-26 07:26:21 51°14.208 2°55.339 8.078121 3.0884 29.060787 12.80364
2004-03-26 07:26:27 51°14.222 2°55.322 8.066911 3.087242 29.051499 12.702512
2004-03-26 07:26:31 51°14.231 2°55.31 8.079039 3.088926 29.075916 13.275571
2004-03-26 07:26:37 51°14.243 2°55.291 8.079763 3.081872 29.009428 13.444118
2004-03-26 07:26:41 51°14.251 2°55.277 8.079763 3.081872 29.009428 13.444118
2004-03-26 07:26:45 51°14.259 2°55.263 8.069424 3.075029 28.940313 12.80364
2004-03-26 07:26:52 51°14.273 2°55.238 8.060967 3.043867 28.621225 12.837349
2004-03-26 07:26:55 51°14.279 2°55.227 8.072178 3.039024 28.57229 13.275571
2004-03-26 07:27:01 51°14.29 2°55.205 8.049126 3.016917 28.346204 11.927195
2004-03-26 07:27:07 51°14.301 2°55.181 8.047386 3.020917 28.389058 13.477828
2004-03-26 07:27:12 51°14.31 2°55.161 8.047386 3.020917 28.389058 13.477828
2004-03-26 07:27:16 51°14.316 2°55.144 8.039216 3.016286 28.347053 11.994614
2004-03-26 07:27:21 51°14.325 2°55.123 8.040231 3.017338 28.359998 12.76993
2004-03-26 07:27:27 51°14.335 2°55.097 8.036219 3.01797 28.371944 12.567674
2004-03-26 07:27:32 51°14.343 2°55.076 8.034865 3.021023 28.407011 12.533965
2004-03-26 07:27:36 51°14.35 2°55.058 8.019392 3.01797 28.381382 12.601383
2004-03-26 07:27:41 51°14.358 2°55.035 8.019392 3.01797 28.381382 12.601383
2004-03-26 07:27:47 51°14.367 2°55.008 8.031046 3.014496 28.349352 12.331708
2004-03-26 07:27:51 51°14.373 2°54.989 8.020746 3.012602 28.333717 12.500255
2004-03-26 07:27:57 51°14.382 2°54.96 8.029837 3.014075 28.35037 11.792358
2004-03-26 07:28:01 51°14.388 2°54.941 8.02418 3.012181 28.33608 12.129452
2004-03-26 07:28:07 51°14.399 2°54.912 8.0103 3.025866 28.482336 12.129452
2004-03-26 07:28:11 51°14.406 2°54.894 8.0103 3.025866 28.482336 12.129452
2004-03-26 07:28:16 51°14.417 2°54.873 8.007302 3.035446 28.581942 12.635093
2004-03-26 07:28:21 51°14.429 2°54.853 7.971355 3.047026 28.702408 12.297999
2004-03-26 07:28:27 51°14.445 2°54.831 7.948605 3.034498 28.572769 13.208153
2004-03-26 07:28:31 51°14.457 2°54.818 7.933402 3.089769 29.153169 14.084597
2004-03-26 07:28:37 51°14.475 2°54.8 7.927495 3.120934 29.486121 13.545247
2004-03-26 07:28:41 51°14.487 2°54.79 7.927495 3.120934 29.486121 13.545247
2004-03-26 07:28:46 51°14.504 2°54.779 7.914079 3.153364 29.837224 13.848631
2004-03-26 07:28:51 51°14.521 2°54.768 7.85777 3.174214 30.076313 14.792494
2004-03-26 07:28:57 51°14.541 2°54.756 7.866835 3.206647 30.435451 14.691366
2004-03-26 07:29:01 51°14.555 2°54.747 7.866108 3.228446 30.679952 15.06217
2004-03-26 07:29:07 51°14.575 2°54.735 7.870713 3.235607 30.765593 14.725076
2004-03-26 07:29:12 51°14.592 2°54.725 7.870713 3.235607 30.765593 14.725076
2004-03-26 07:29:17 51°14.61 2°54.715 7.873669 3.270466 31.155981 15.02846
2004-03-26 07:29:21 51°14.624 2°54.708 7.887433 3.306907 31.552959 14.118306
2004-03-26 07:29:27 51°14.645 2°54.698 7.863345 3.335766 31.863698 14.4554
2004-03-26 07:29:31 51°14.659 2°54.691 7.855685 3.357569 32.095508 14.522819
2004-03-26 07:29:36 51°14.677 2°54.683 7.849625 3.384218 32.379773 15.163298
2004-03-26 07:29:41 51°14.694 2°54.675 7.849625 3.384218 32.379773 15.163298
2004-03-26 07:29:47 51°14.716 2°54.666 7.842497 3.394541 32.488606 15.904905
2004-03-26 07:29:51 51°14.73 2°54.66 7.820526 3.406655 32.620419 14.994751
2004-03-26 07:29:55 51°14.744 2°54.654 7.814317 3.413503 32.698674 15.197007
2004-03-26 07:30:01 51°14.766 2°54.644 7.81257 3.418348 32.761179 14.961042
2004-03-26 07:30:07 51°14.787 2°54.635 7.798645 3.426038 32.849295 14.826204
2004-03-26 07:30:11 51°14.801 2°54.628 7.798645 3.426038 32.849295 14.826204
2004-03-26 07:30:16 51°14.819 2°54.62 7.797626 3.427303 32.870624 14.219435
2004-03-26 07:30:21 51°14.837 2°54.612 7.778893 3.417506 32.778901 14.185725
2004-03-26 07:30:27 51°14.859 2°54.603 7.777679 3.426671 32.885166 13.91605
2004-03-26 07:30:31 51°14.873 2°54.598 7.787435 3.426355 32.890472 14.826204
2004-03-26 07:30:37 51°14.895 2°54.591 7.775495 3.425091 32.881733 14.320563
2004-03-26 07:30:41 51°14.909 2°54.586 7.775495 3.425091 32.881733 14.320563
2004-03-26 07:30:47 51°14.931 2°54.579 7.770058 3.424564 32.884795 13.3767
2004-03-26 07:30:52 51°14.949 2°54.574 7.787193 3.424038 32.88786 13.174443
2004-03-26 07:30:56 51°14.964 2°54.57 7.782533 3.387906 32.503692 13.174443
2004-03-26 07:31:01 51°14.982 2°54.565 7.780495 3.417085 32.815312 13.3767
2004-03-26 07:31:07 51°15.004 2°54.559 7.781368 3.418981 32.84262 13.174443
2004-03-26 07:31:11 51°15.018 2°54.555 7.781368 3.418981 32.84262 13.174443
2004-03-26 07:31:16 51°15.036 2°54.55 7.779864 3.426882 32.924511 13.34299
2004-03-26 07:31:21 51°15.053 2°54.544 7.777048 3.428041 32.93529 14.152016
2004-03-26 07:31:27 51°15.074 2°54.537 7.776563 3.430148 32.958554 12.196871
2004-03-26 07:31:32 51°15.092 2°54.531 7.769427 3.434256 33.003178 12.601383
2004-03-26 07:31:37 51°15.109 2°54.524 7.773311 3.429621 32.954518 12.399127
2004-03-26 07:31:41 51°15.123 2°54.519 7.773311 3.429621 32.954518 12.399127
2004-03-26 07:31:47 51°15.144 2°54.51 7.761853 3.419192 32.844866 12.129452
2004-03-26 07:31:51 51°15.158 2°54.504 7.760931 3.420983 32.865541 12.365418
2004-03-26 07:31:55 51°15.172 2°54.498 7.756027 3.439945 33.071027 12.297999
2004-03-26 07:32:01 51°15.194 2°54.489 7.754376 3.434151 33.011563 12.365418
2004-03-26 07:32:07 51°15.215 2°54.48 7.753502 3.423406 32.90244 11.792358
2004-03-26 07:32:11 51°15.229 2°54.475 7.753502 3.423406 32.90244 11.792358
2004-03-26 07:32:16 51°15.247 2°54.468 7.756318 3.436363 33.044697 12.533965
2004-03-26 07:32:21 51°15.265 2°54.463 7.745343 3.438681 33.073416 12.972187
2004-03-26 07:32:27 51°15.287 2°54.457 7.734464 3.43236 33.008302 12.062033
2004-03-26 07:32:31 51°15.302 2°54.454 7.731355 3.443632 33.13187 11.590101
2004-03-26 07:32:36 51°15.32 2°54.449 7.723485 3.446476 33.163058 12.399127
2004-03-26 07:32:42 51°15.342 2°54.444 7.723485 3.446476 33.163058 12.399127
2004-03-26 07:32:45 51°15.353 2°54.441 7.721105 3.444791 33.147437 12.095742
2004-03-26 07:32:52 51°15.379 2°54.435 7.708763 3.449216 33.201103 11.11817
2004-03-26 07:32:56 51°15.393 2°54.431 7.708375 3.448162 33.197822 11.455264
2004-03-26 07:33:01 51°15.412 2°54.425 7.69501 3.440472 33.121188 11.65752
2004-03-26 07:33:07 51°15.434 2°54.419 7.697683 3.452482 33.2552 11.758648
2004-03-26 07:33:12 51°15.452 2°54.413 7.697683 3.452482 33.2552 11.758648
2004-03-26 07:33:17 51°15.471 2°54.407 7.687282 3.42446 32.962764 11.488973
2004-03-26 07:33:21 51°15.486 2°54.402 7.674107 3.450164 33.244002 10.915913
2004-03-26 07:33:25 51°15.5 2°54.398 7.67367 3.45659 33.319191 11.488973
2004-03-26 07:33:32 51°15.526 2°54.389 7.653587 3.446582 33.215268 10.54511
2004-03-26 07:33:37 51°15.544 2°54.384 7.656748 3.448689 33.245821 11.185589
2004-03-26 07:33:41 51°15.559 2°54.379 7.656748 3.448689 33.245821 11.185589
2004-03-26 07:33:47 51°15.581 2°54.374 7.651885 3.451218 33.280903 10.983332
2004-03-26 07:33:51 51°15.596 2°54.37 7.656262 3.448058 33.255068 10.443982
2004-03-26 07:33:57 51°15.618 2°54.366 7.652322 3.456485 33.355799 10.443982
2004-03-26 07:34:01 51°15.633 2°54.363 7.648383 3.46249 33.425002 10.983332
2004-03-26 07:34:07 51°15.656 2°54.359 7.646729 3.465862 33.46438 10.342853
2004-03-26 07:34:12 51°15.675 2°54.356 7.646729 3.465862 33.46438 10.342853
2004-03-26 07:34:17 51°15.693 2°54.353 7.654025 3.466915 33.476486 10.208016
2004-03-26 07:34:21 51°15.708 2°54.35 7.652663 3.476502 33.582578 10.208016
2004-03-26 07:34:27 51°15.73 2°54.346 7.661903 3.482612 33.650597 10.376563
2004-03-26 07:34:31 51°15.745 2°54.343 7.662195 3.471551 33.534296 10.275435
2004-03-26 07:34:35 51°15.76 2°54.34 7.663653 3.472499 33.542853 10.309144
2004-03-26 07:34:41 51°15.783 2°54.335 7.663653 3.472499 33.542853 10.309144
2004-03-26 07:34:47 51°15.805 2°54.331 7.657818 3.480611 33.629109 10.241725
2004-03-26 07:34:51 51°15.82 2°54.328 7.661903 3.487037 33.694855 10.309144
2004-03-26 07:34:57 51°15.842 2°54.324 7.666133 3.48198 33.640567 10.612529
2004-03-26 07:35:02 51°15.861 2°54.321 7.672211 3.474922 33.563192 10.983332
2004-03-26 07:35:07 51°15.88 2°54.319 7.677997 3.474816 33.56287 9.634956
2004-03-26 07:35:11 51°15.895 2°54.317 7.677997 3.474816 33.56287 9.634956
2004-03-26 07:35:17 51°15.917 2°54.314 7.685823 3.487353 33.698249 11.050751
2004-03-26 07:35:21 51°15.932 2°54.312 7.694427 3.477766 33.591286 10.241725
2004-03-26 07:35:27 51°15.954 2°54.308 7.70541 3.489144 33.708539 10.646238
2004-03-26 07:35:31 51°15.969 2°54.306 7.709492 3.478398 33.589163 10.005759
2004-03-26 07:35:37 51°15.991 2°54.303 7.714643 3.479768 33.598998 10.275435
2004-03-26 07:35:41 51°16.006 2°54.3 7.714643 3.479768 33.598998 10.275435
2004-03-26 07:35:47 51°16.029 2°54.297 7.724311 3.488933 33.69166 9.365281
2004-03-26 07:35:51 51°16.043 2°54.294 7.728392 3.486826 33.660132 10.376563
2004-03-26 07:35:57 51°16.065 2°54.291 7.735532 3.487985 33.665265 10.5114
2004-03-26 07:36:01 51°16.078 2°54.288 7.742381 3.490303 33.685256 10.309144
2004-03-26 07:36:07 51°16.098 2°54.285 7.746897 3.478292 33.548418 11.354136
2004-03-26 07:36:11 51°16.111 2°54.283 7.746897 3.478292 33.548418 11.354136
2004-03-26 07:36:17 51°16.129 2°54.28 7.748548 3.48672 33.633081 10.646238
2004-03-26 07:36:21 51°16.141 2°54.278 7.752191 3.487247 33.633061 11.859777
2004-03-26 07:36:27 51°16.157 2°54.275 7.753502 3.488827 33.645139 11.320426
2004-03-26 07:36:31 51°16.168 2°54.274 7.754424 3.476396 33.507131 11.11817
2004-03-26 07:36:37 51°16.182 2°54.272 7.757532 3.469443 33.427867 12.062033
2004-03-26 07:36:41 51°16.192 2°54.27 7.757532 3.469443 33.427867 12.062033
2004-03-26 07:36:47 51°16.204 2°54.269 7.756804 3.487668 33.62059 10.309144
2004-03-26 07:36:51 51°16.212 2°54.269 7.76195 3.488511 33.626383 12.331708
2004-03-26 07:36:57 51°16.223 2°54.269 7.761125 3.477238 33.504069 11.11817
2004-03-26 07:37:01 51°16.23 2°54.27 7.763455 3.48356 33.570935 11.08446
2004-03-26 07:37:07 51°16.239 2°54.272 7.766077 3.483876 33.574319 11.421554
2004-03-26 07:37:12 51°16.245 2°54.273 7.766077 3.483876 33.574319 11.421554
2004-03-26 07:37:16 51°16.249 2°54.274 7.765252 3.487458 33.608635 11.185589
2004-03-26 07:37:21 51°16.253 2°54.276 7.766368 3.485245 33.582524 10.882204
2004-03-26 07:37:27 51°16.257 2°54.277 7.766708 3.489986 33.631668 11.354136
2004-03-26 07:37:31 51°16.259 2°54.278 7.761173 3.487563 33.605724 11.185589
2004-03-26 07:37:36 51°16.26 2°54.279 7.75928 3.483033 33.554807 10.915913
2004-03-26 07:37:41 51°16.262 2°54.28 7.75928 3.483033 33.554807 10.915913
2004-03-26 07:37:47 51°16.264 2°54.281 7.748937 3.476396 33.483778 10.477691
2004-03-26 07:37:51 51°16.264 2°54.281 7.735241 3.479661 33.519531 13.208153
2004-03-26 07:37:57 51°16.266 2°54.283 7.723534 3.488827 33.61926 11.11817
2004-03-26 07:38:01 51°16.266 2°54.284 7.71576 3.481031 33.537413 11.724939
2004-03-26 07:38:07 51°16.267 2°54.285 7.713574 3.47608 33.489249 11.151879
2004-03-26 07:38:11 51°16.267 2°54.285 7.713574 3.47608 33.489249 11.151879
2004-03-26 07:38:16 51°16.268 2°54.287 7.704001 3.475553 33.493274 11.590101
2004-03-26 07:38:21 51°16.268 2°54.288 7.699724 3.481663 33.570002 10.814785
2004-03-26 07:38:27 51°16.268 2°54.289 7.697343 3.473025 33.485533 11.623811
2004-03-26 07:38:32 51°16.268 2°54.29 7.698558 3.47155 33.476986 10.679947
2004-03-26 07:38:36 51°16.268 2°54.29 7.69224 3.471655 33.484562 10.814785
2004-03-26 07:38:41 51°16.267 2°54.291 7.69224 3.471655 33.484562 10.814785
2004-03-26 07:38:47 51°16.267 2°54.292 7.695836 3.465967 33.429248 11.017042
2004-03-26 07:38:51 51°16.267 2°54.292 7.692823 3.476818 33.548763 10.5114
2004-03-26 07:38:57 51°16.266 2°54.293 7.686504 3.462385 33.397309 10.309144
2004-03-26 07:39:01 51°16.265 2°54.293 7.690247 3.467863 33.460039 10.477691
2004-03-26 07:39:07 51°16.265 2°54.294 7.686796 3.465124 33.430683 11.017042
2004-03-26 07:39:11 51°16.264 2°54.294 7.686796 3.465124 33.430683 11.017042
2004-03-26 07:39:17 51°16.263 2°54.294 7.680573 3.464281 33.424872 11.387845
2004-03-26 07:39:21 51°16.262 2°54.294 7.684851 3.481453 33.608983 9.668665
2004-03-26 07:39:27 51°16.262 2°54.295 7.680428 3.473973 33.530384 10.140597
2004-03-26 07:39:31 51°16.261 2°54.295 7.68033 3.446899 33.241855 10.106888
2004-03-26 07:39:37 51°16.26 2°54.295 7.683879 3.454168 33.324535 10.241725
2004-03-26 07:39:41 51°16.259 2°54.296 7.683879 3.454168 33.324535 10.241725
2004-03-26 07:39:47 51°16.258 2°54.296 7.686747 3.464176 33.43099 9.39899
2004-03-26 07:39:51 51°16.257 2°54.297 7.689323 3.479452 33.598846 10.477691
2004-03-26 07:39:56 51°16.256 2°54.298 7.685872 3.470286 33.500535 10.005759
2004-03-26 07:40:01 51°16.255 2°54.299 7.684122 3.466599 33.46019 10.646238
2004-03-26 07:40:07 51°16.254 2°54.301 7.684803 3.470813 33.503762 10.646238
2004-03-26 07:40:12 51°16.253 2°54.303 7.684803 3.470813 33.503762 10.646238
2004-03-26 07:40:17 51°16.252 2°54.307 7.683976 3.474605 33.543627 11.08446
2004-03-26 07:40:21 51°16.251 2°54.311 7.680039 3.472182 33.517641 10.814785
2004-03-26 07:40:27 51°16.25 2°54.318 7.67892 3.453852 33.321951 9.668665
2004-03-26 07:40:31 51°16.25 2°54.322 7.681983 3.475975 33.560742 10.275435
2004-03-26 07:40:36 51°16.249 2°54.327 7.677997 3.476502 33.566392 10.679947
2004-03-26 07:40:41 51°16.249 2°54.333 7.677997 3.476502 33.566392 10.679947
2004-03-26 07:40:47 51°16.248 2°54.34 7.68033 3.474606 33.547669 10.376563
2004-03-26 07:40:52 51°16.248 2°54.346 7.682469 3.46997 33.499568 10.174306
2004-03-26 07:40:57 51°16.248 2°54.352 7.683247 3.471024 33.509251 10.646238
2004-03-26 07:41:01 51°16.248 2°54.357 7.684317 3.477345 33.579479 10.241725
2004-03-26 07:41:07 51°16.247 2°54.364 7.683247 3.470497 33.507639 10.679947
2004-03-26 07:41:12 51°16.247 2°54.37 7.683247 3.470497 33.507639 10.679947
2004-03-26 07:41:16 51°16.247 2°54.374 7.677559 3.452482 33.313698 10.612529
2004-03-26 07:41:21 51°16.246 2°54.38 7.683344 3.470286 33.504572 10.309144
2004-03-26 07:41:27 51°16.246 2°54.387 7.682323 3.479557 33.600786 10.342853
2004-03-26 07:41:31 51°16.246 2°54.391 7.682178 3.465229 33.447119 11.185589
2004-03-26 07:41:36 51°16.245 2°54.396 7.686504 3.43963 33.173609 9.567537
2004-03-26 07:41:41 51°16.245 2°54.401 7.686504 3.43963 33.173609 9.567537
2004-03-26 07:41:47 51°16.245 2°54.407 7.693892 3.476607 33.572376 10.949623
2004-03-26 07:41:51 51°16.244 2°54.41 7.695885 3.461542 33.409199 10.848494
2004-03-26 07:41:57 51°16.244 2°54.415 7.699384 3.475975 33.563977 10.410272
2004-03-26 07:42:01 51°16.243 2°54.418 7.706577 3.474606 33.54686 10.140597
2004-03-26 07:42:07 51°16.243 2°54.423 7.708763 3.479873 33.600128 9.601247
2004-03-26 07:42:11 51°16.242 2°54.426 7.708763 3.479873 33.600128 9.601247
2004-03-26 07:42:16 51°16.242 2°54.429 7.708229 3.473973 33.533616 9.668665
2004-03-26 07:42:21 51°16.241 2°54.432 7.714643 3.469127 33.477621 10.241725
2004-03-26 07:42:27 51°16.241 2°54.437 7.716052 3.473552 33.521828 9.769794
2004-03-26 07:42:31 51°16.241 2°54.441 7.717801 3.464808 33.425686 11.253007
2004-03-26 07:42:36 51°16.24 2°54.445 7.717169 3.454589 33.312998 9.196734
2004-03-26 07:42:41 51°16.24 2°54.45 7.717169 3.454589 33.312998 9.196734
2004-03-26 07:42:47 51°16.24 2°54.456 7.721299 3.478714 33.568285 10.646238
2004-03-26 07:42:52 51°16.24 2°54.462 7.725234 3.472709 33.501495 10.410272
2004-03-26 07:42:57 51°16.239 2°54.467 7.727274 3.464597 33.412162 11.08446
2004-03-26 07:43:01 51°16.239 2°54.472 7.729023 3.446056 33.213628 10.915913
2004-03-26 07:43:07 51°16.239 2°54.479 7.730432 3.472498 33.493592 11.320426
2004-03-26 07:43:11 51°16.239 2°54.483 7.730432 3.472498 33.493592 11.320426
2004-03-26 07:43:17 51°16.239 2°54.491 7.730918 3.478503 33.555521 11.219298
2004-03-26 07:43:21 51°16.238 2°54.495 7.730286 3.469022 33.451512 11.387845
2004-03-26 07:43:27 51°16.238 2°54.503 7.732278 3.454694 33.296487 10.983332
2004-03-26 07:43:31 51°16.238 2°54.508 7.735435 3.47903 33.554705 10.713657
2004-03-26 07:43:36 51°16.237 2°54.514 7.735144 3.472077 33.479405 10.781076
2004-03-26 07:43:42 51°16.237 2°54.521 7.735144 3.472077 33.479405 10.781076
2004-03-26 07:43:47 51°16.237 2°54.528 7.732181 3.471128 33.468444 11.050751
2004-03-26 07:43:52 51°16.236 2°54.534 7.733978 3.475553 33.516648 10.814785
2004-03-26 07:43:57 51°16.236 2°54.54 7.731355 3.476396 33.522451 11.11817
2004-03-26 07:44:01 51°16.235 2°54.545 7.730772 3.470602 33.461191 11.017042
2004-03-26 07:44:07 51°16.235 2°54.552 7.734901 3.451218 33.252875 11.286717
2004-03-26 07:44:12 51°16.234 2°54.558 7.734901 3.451218 33.252875 11.286717
2004-03-26 07:44:17 51°16.233 2°54.564 7.728149 3.476817 33.527772 10.983332
2004-03-26 07:44:21 51°16.233 2°54.569 7.730238 3.480821 33.570665 10.073178
2004-03-26 07:44:27 51°16.232 2°54.576 7.72708 3.454589 33.292154 12.331708
2004-03-26 07:44:31 51°16.232 2°54.581 7.72606 3.433836 33.070134 11.488973
2004-03-26 07:44:36 51°16.231 2°54.587 7.723048 3.479557 33.560349 11.455264
2004-03-26 07:44:41 51°16.23 2°54.593 7.723048 3.479557 33.560349 11.455264
2004-03-26 07:44:47 51°16.229 2°54.6 7.724748 3.480926 33.575026 11.151879
2004-03-26 07:44:51 51°16.229 2°54.605 7.72436 3.481769 33.584866 11.354136
2004-03-26 07:44:56 51°16.228 2°54.61 7.721348 3.48198 33.585507 10.578819
2004-03-26 07:45:01 51°16.227 2°54.616 7.721056 3.481558 33.584224 10.915913
2004-03-26 07:45:06 51°16.227 2°54.622 7.723194 3.4804 33.579887 10.646238
2004-03-26 07:45:12 51°16.226 2°54.629 7.723194 3.4804 33.579887 10.646238
2004-03-26 07:45:16 51°16.226 2°54.633 7.722951 3.477976 33.549068 11.151879
2004-03-26 07:45:21 51°16.225 2°54.639 7.723728 3.478925 33.55923 11.151879
2004-03-26 07:45:27 51°16.224 2°54.645 7.724943 3.479346 33.568594 10.174306
2004-03-26 07:45:32 51°16.224 2°54.651 7.723825 3.47766 33.546489 11.050751
2004-03-26 07:45:36 51°16.223 2°54.655 7.725186 3.478398 33.552777 10.949623
2004-03-26 07:45:41 51°16.223 2°54.661 7.725186 3.478398 33.552777 10.949623
2004-03-26 07:45:47 51°16.222 2°54.667 7.724846 3.478503 33.553098 11.11817
2004-03-26 07:45:51 51°16.221 2°54.672 7.727566 3.478187 33.550519 11.893486
2004-03-26 07:45:57 51°16.221 2°54.678 7.726497 3.475448 33.523588 10.915913
2004-03-26 07:46:01 51°16.221 2°54.682 7.729509 3.47766 33.545681 10.949623
2004-03-26 07:46:07 51°16.22 2°54.688 7.730626 3.468916 33.449578 10.073178
2004-03-26 07:46:11 51°16.22 2°54.693 7.730626 3.468916 33.449578 10.073178
2004-03-26 07:46:16 51°16.22 2°54.698 7.735872 3.476923 33.536164 10.477691
2004-03-26 07:46:21 51°16.219 2°54.703 7.739029 3.471971 33.4815 9.904631
2004-03-26 07:46:27 51°16.219 2°54.709 7.740195 3.473762 33.498268 11.488973
2004-03-26 07:46:32 51°16.219 2°54.714 7.742429 3.475026 33.511005 11.859777
2004-03-26 07:46:37 51°16.218 2°54.719 7.739418 3.470918 33.462966 10.747366
2004-03-26 07:46:41 51°16.218 2°54.723 7.739418 3.470918 33.462966 10.747366
2004-03-26 07:46:47 51°16.218 2°54.729 7.741215 3.475132 33.506489 11.151879
2004-03-26 07:46:51 51°16.218 2°54.733 7.741312 3.475764 33.512454 10.814785
2004-03-26 07:46:57 51°16.218 2°54.74 7.739321 3.475026 33.503748 10.781076
2004-03-26 07:47:01 51°16.218 2°54.744 7.738252 3.473657 33.48908 11.724939
2004-03-26 07:47:07 51°16.218 2°54.75 7.738204 3.474394 33.496172 10.882204
2004-03-26 07:47:12 51°16.218 2°54.755 7.738204 3.474394 33.496172 10.882204
2004-03-26 07:47:16 51°16.218 2°54.759 7.739175 3.468916 33.437507 10.983332
2004-03-26 07:47:21 51°16.218 2°54.765 7.740341 3.47313 33.481827 11.185589
2004-03-26 07:47:27 51°16.218 2°54.771 7.741166 3.47176 33.467966 10.612529
2004-03-26 07:47:31 51°16.217 2°54.775 7.735629 3.47176 33.467966 10.241725
2004-03-26 07:47:36 51°16.217 2°54.781 7.740875 3.471444 33.463776 11.08446
2004-03-26 07:47:41 51°16.217 2°54.786 7.740875 3.471444 33.463776 11.08446
2004-03-26 07:47:47 51°16.217 2°54.793 7.736067 3.469864 33.450074 10.477691
2004-03-26 07:47:51 51°16.217 2°54.797 7.738009 3.469864 33.449269 11.320426
2004-03-26 07:47:57 51°16.217 2°54.804 7.734124 3.468284 33.431543 10.949623
2004-03-26 07:48:01 51°16.216 2°54.808 7.737135 3.469127 33.439763 10.814785
2004-03-26 07:48:07 51°16.216 2°54.815 7.737621 3.466914 33.416879 10.646238
2004-03-26 07:48:11 51°16.216 2°54.819 7.737621 3.466914 33.416879 10.646238
2004-03-26 07:48:17 51°16.216 2°54.826 7.732764 3.467968 33.428963 10.646238
2004-03-26 07:48:21 51°16.216 2°54.831 7.733541 3.468073 33.430091 10.241725
2004-03-26 07:48:27 51°16.215 2°54.837 7.732132 3.466809 33.417359 10.848494
2004-03-26 07:48:31 51°16.216 2°54.842 7.734464 3.459329 33.337284 10.949623
2004-03-26 07:48:37 51°16.215 2°54.849 7.735872 3.465545 33.403823 10.342853
2004-03-26 07:48:41 51°16.215 2°54.853 7.735872 3.465545 33.403823 10.342853
2004-03-26 07:48:47 51°16.215 2°54.86 7.739952 3.466388 33.413651 10.882204
2004-03-26 07:48:52 51°16.215 2°54.866 7.736552 3.463227 33.381419 10.578819
2004-03-26 07:48:57 51°16.214 2°54.871 7.737378 3.465545 33.406235 10.241725
2004-03-26 07:49:01 51°16.214 2°54.876 7.739807 3.46407 33.388836 11.185589
2004-03-26 07:49:07 51°16.213 2°54.883 7.737087 3.466388 33.413651 11.253007
2004-03-26 07:49:11 51°16.213 2°54.887 7.737087 3.466388 33.413651 11.253007
2004-03-26 07:49:17 51°16.212 2°54.894 7.737621 3.463227 33.379813 10.208016
2004-03-26 07:49:21 51°16.212 2°54.899 7.740049 3.463016 33.375951 11.11817
2004-03-26 07:49:27 51°16.211 2°54.906 7.738058 3.464175 33.387554 10.713657
2004-03-26 07:49:32 51°16.211 2°54.911 7.742721 3.464281 33.390288 10.410272
2004-03-26 07:49:37 51°16.21 2°54.917 7.740584 3.464807 33.394321 9.904631
2004-03-26 07:49:41 51°16.21 2°54.921 7.740584 3.464807 33.394321 9.904631
2004-03-26 07:49:47 51°16.209 2°54.928 7.739807 3.463859 33.384974 11.219298
2004-03-26 07:49:51 51°16.209 2°54.933 7.742526 3.464491 33.390134 10.309144
2004-03-26 07:49:57 51°16.208 2°54.94 7.741458 3.463332 33.376925 10.882204
2004-03-26 07:50:01 51°16.208 2°54.944 7.742721 3.464281 33.387878 10.747366
2004-03-26 07:50:07 51°16.207 2°54.951 7.741312 3.463332 33.376122 10.915913
2004-03-26 07:50:11 51°16.207 2°54.956 7.741312 3.463332 33.376122 10.915913
2004-03-26 07:50:17 51°16.206 2°54.963 7.739612 3.464597 33.388852 12.331708
2004-03-26 07:50:21 51°16.205 2°54.968 7.738689 3.464281 33.386272 11.354136
2004-03-26 07:50:27 51°16.205 2°54.975 7.740681 3.464281 33.387075 11.792358
2004-03-26 07:50:31 51°16.204 2°54.98 7.741458 3.46407 33.385623 10.915913
2004-03-26 07:50:37 51°16.204 2°54.987 7.741361 3.463965 33.384495 11.017042
2004-03-26 07:50:41 51°16.203 2°54.992 7.741361 3.463965 33.384495 11.017042
2004-03-26 07:50:47 51°16.203 2°54.999 7.743789 3.460699 33.350339 10.983332
2004-03-26 07:50:51 51°16.202 2°55.003 7.743012 3.461858 33.363546 10.814785
2004-03-26 07:50:57 51°16.201 2°55.01 7.746217 3.462911 33.374823 11.826067
2004-03-26 07:51:01 51°16.201 2°55.015 7.743352 3.463438 33.380462 11.455264
2004-03-26 07:51:07 51°16.2 2°55.022 7.743838 3.463859 33.38417 11.522683
2004-03-26 07:51:11 51°16.2 2°55.027 7.743838 3.463859 33.38417 11.522683
2004-03-26 07:51:17 51°16.199 2°55.034 7.742235 3.463227 33.374995 11.455264
2004-03-26 07:51:21 51°16.199 2°55.038 7.740827 3.46407 33.38482 11.253007
2004-03-26 07:51:27 51°16.198 2°55.045 7.741215 3.462384 33.364368 10.646238
2004-03-26 07:51:32 51°16.198 2°55.051 7.742769 3.463543 33.379984 10.174306
2004-03-26 07:51:37 51°16.197 2°55.057 7.746315 3.463965 33.382889 10.241725
2004-03-26 07:51:41 51°16.197 2°55.061 7.746315 3.463965 33.382889 10.241725
2004-03-26 07:51:47 51°16.196 2°55.068 7.748548 3.461647 33.358883 10.275435
2004-03-26 07:51:51 51°16.196 2°55.073 7.74884 3.463333 33.377728 11.488973
2004-03-26 07:51:57 51°16.196 2°55.08 7.746946 3.459224 33.332949 10.713657
2004-03-26 07:52:01 51°16.196 2°55.084 7.745392 3.463227 33.374995 10.882204
2004-03-26 07:52:07 51°16.195 2°55.091 7.74612 3.463543 33.376772 10.376563
2004-03-26 07:52:11 51°16.195 2°55.095 7.74612 3.463543 33.376772 10.376563
2004-03-26 07:52:16 51°16.195 2°55.101 7.74646 3.46407 33.38241 10.342853
2004-03-26 07:52:21 51°16.194 2°55.107 7.747917 3.462384 33.361158 10.241725
2004-03-26 07:52:27 51°16.194 2°55.113 7.74884 3.463438 33.374039 10.713657
2004-03-26 07:52:32 51°16.194 2°55.119 7.747529 3.462595 33.365821 11.08446
2004-03-26 07:52:35 51°16.194 2°55.122 7.748014 3.462174 33.362113 10.106888
2004-03-26 07:52:41 51°16.194 2°55.129 7.748014 3.462174 33.362113 10.106888
2004-03-26 07:52:45 51°16.193 2°55.133 7.748354 3.463016 33.370331 9.803503
2004-03-26 07:52:51 51°16.193 2°55.14 7.750734 3.461858 33.357125 10.309144
2004-03-26 07:52:57 51°16.193 2°55.146 7.752385 3.462595 33.363413 10.578819
2004-03-26 07:53:01 51°16.193 2°55.151 7.752239 3.462806 33.366471 10.781076
2004-03-26 07:53:07 51°16.193 2°55.157 7.751753 3.462806 33.365668 10.208016
2004-03-26 07:53:11 51°16.193 2°55.161 7.751753 3.462806 33.365668 10.208016
2004-03-26 07:53:16 51°16.193 2°55.167 7.752433 3.462806 33.364865 10.275435
2004-03-26 07:53:21 51°16.193 2°55.172 7.750394 3.461647 33.351661 10.54511
2004-03-26 07:53:27 51°16.193 2°55.179 7.750879 3.460277 33.337808 9.97205
2004-03-26 07:53:31 51°16.194 2°55.183 7.750394 3.461752 33.352789 9.870922
2004-03-26 07:53:37 51°16.194 2°55.189 7.74986 3.4627 33.361331 10.275435
2004-03-26 07:53:41 51°16.194 2°55.193 7.74986 3.4627 33.361331 10.275435
2004-03-26 07:53:47 51°16.195 2°55.2 7.749762 3.4627 33.362133 9.736084
2004-03-26 07:53:52 51°16.195 2°55.205 7.745975 3.461858 33.354718 11.050751
2004-03-26 07:53:57 51°16.196 2°55.21 7.74714 3.46249 33.355065 9.466409
2004-03-26 07:54:01 51°16.196 2°55.214 7.747869 3.461436 33.351813 10.309144
2004-03-26 07:54:07 51°16.196 2°55.221 7.746169 3.461015 33.345699 10.882204
2004-03-26 07:54:12 51°16.197 2°55.226 7.746169 3.461015 33.345699 10.882204
2004-03-26 07:54:17 51°16.197 2°55.231 7.744809 3.462384 33.360356 9.601247
2004-03-26 07:54:21 51°16.198 2°55.235 7.744566 3.460909 33.346978 9.837212
2004-03-26 07:54:27 51°16.199 2°55.242 7.74442 3.461858 33.354718 10.410272
2004-03-26 07:54:31 51°16.199 2°55.246 7.742381 3.461436 33.351011 9.837212
2004-03-26 07:54:37 51°16.2 2°55.252 7.743401 3.459961 33.338435 10.005759
2004-03-26 07:54:41 51°16.2 2°55.257 7.743401 3.459961 33.338435 10.005759
2004-03-26 07:54:47 51°16.202 2°55.263 7.741992 3.461752 33.355196 9.803503
2004-03-26 07:54:51 51°16.202 2°55.267 7.742915 3.461858 33.35873 10.005759
2004-03-26 07:54:57 51°16.203 2°55.273 7.743643 3.461647 33.358883 9.668665
2004-03-26 07:55:01 51°16.204 2°55.277 7.740244 3.462384 33.365973 9.466409
2004-03-26 07:55:07 51°16.205 2°55.283 7.742235 3.4627 33.366146 10.005759
2004-03-26 07:55:11 51°16.205 2°55.288 7.742235 3.4627 33.366146 10.005759
2004-03-26 07:55:17 51°16.207 2°55.294 7.745975 3.463016 33.371937 9.736084
2004-03-26 07:55:21 51°16.207 2°55.298 7.741604 3.462279 33.367254 9.129315
2004-03-26 07:55:27 51°16.208 2°55.305 7.743789 3.462911 33.371612 10.376563
2004-03-26 07:55:31 51°16.209 2°55.309 7.743498 3.461226 33.354372 9.500118
2004-03-26 07:55:36 51°16.209 2°55.315 7.743935 3.462911 33.371612 8.994477
2004-03-26 07:55:41 51°16.21 2°55.32 7.743935 3.462911 33.371612 8.994477
2004-03-26 07:55:47 51°16.21 2°55.327 7.746023 3.463438 33.378053 10.174306
2004-03-26 07:55:51 51°16.211 2°55.331 7.748014 3.463543 33.378378 8.657383
2004-03-26 07:55:56 51°16.211 2°55.337 7.748451 3.464281 33.385469 10.477691
2004-03-26 07:56:01 51°16.212 2°55.343 7.749714 3.464175 33.382735 10.5114
2004-03-26 07:56:07 51°16.212 2°55.35 7.749471 3.464807 33.389501 10.174306
2004-03-26 07:56:11 51°16.212 2°55.354 7.749471 3.464807 33.389501 10.174306
2004-03-26 07:56:17 51°16.213 2°55.361 7.750685 3.464491 33.384512 10.309144
2004-03-26 07:56:21 51°16.213 2°55.365 7.755395 3.4627 33.366948 10.646238
2004-03-26 07:56:27 51°16.213 2°55.372 7.752822 3.463122 33.36905 10.208016
2004-03-26 07:56:31 51°16.213 2°55.377 7.753842 3.464175 33.379523 10.578819
2004-03-26 07:56:36 51°16.213 2°55.383 7.754424 3.464913 33.386613 10.781076
2004-03-26 07:56:41 51°16.213 2°55.389 7.754424 3.464913 33.386613 10.781076
2004-03-26 07:56:47 51°16.212 2°55.396 7.754618 3.465439 33.390644 10.174306
2004-03-26 07:56:52 51°16.212 2°55.401 7.75491 3.464807 33.383077 9.230443
2004-03-26 07:56:56 51°16.212 2°55.406 7.756901 3.463859 33.371324 9.769794
2004-03-26 07:57:01 51°16.212 2°55.412 7.755978 3.464491 33.378089 10.140597
2004-03-26 07:57:07 51°16.211 2°55.419 7.757386 3.465334 33.387911 9.702375
2004-03-26 07:57:12 51°16.211 2°55.425 7.757386 3.465334 33.387911 9.702375
2004-03-26 07:57:17 51°16.21 2°55.431 7.758212 3.46565 33.388884 11.859777
2004-03-26 07:57:21 51°16.209 2°55.436 7.756949 3.463016 33.361503 10.612529
2004-03-26 07:57:27 51°16.209 2°55.442 7.754618 3.465123 33.383247 11.253007
2004-03-26 07:57:31 51°16.208 2°55.447 7.755201 3.464491 33.376483 11.185589
2004-03-26 07:57:37 51°16.207 2°55.454 7.75423 3.464913 33.378585 10.54511
2004-03-26 07:57:41 51°16.206 2°55.459 7.75423 3.464913 33.378585 10.54511
2004-03-26 07:57:47 51°16.205 2°55.466 7.751608 3.46428 33.373426 9.938341
2004-03-26 07:57:51 51°16.204 2°55.471 7.751171 3.464597 33.377611 10.848494
2004-03-26 07:57:57 51°16.203 2°55.478 7.752919 3.46407 33.373579 10.814785
2004-03-26 07:58:01 51°16.201 2°55.482 7.748014 3.46249 33.356669 9.702375
2004-03-26 07:58:07 51°16.2 2°55.489 7.751122 3.463016 33.36391 11.792358
2004-03-26 07:58:11 51°16.199 2°55.494 7.751122 3.463016 33.36391 11.792358
2004-03-26 07:58:17 51°16.197 2°55.501 7.749568 3.461331 33.345873 11.219298
2004-03-26 07:58:21 51°16.196 2°55.506 7.747431 3.462068 33.355369 10.949623
2004-03-26 07:58:27 51°16.194 2°55.513 7.747383 3.461858 33.353114 10.747366
2004-03-26 07:58:31 51°16.193 2°55.517 7.74442 3.461541 33.350534 10.410272
2004-03-26 07:58:37 51°16.191 2°55.524 7.745489 3.460909 33.344572 10.073178
2004-03-26 07:58:41 51°16.19 2°55.529 7.747286 3.460699 33.342317 10.275435
2004-03-26 07:58:47 51°16.189 2°55.536 7.747286 3.460699 33.342317 10.275435
2004-03-26 07:58:51 51°16.188 2°55.54 7.742089 3.459856 33.335704 10.612529
2004-03-26 07:58:56 51°16.186 2°55.546 7.742138 3.459435 33.331996 10.005759
2004-03-26 07:59:01 51°16.185 2°55.551 7.743838 3.459329 33.330869 10.309144
2004-03-26 07:59:05 51°16.183 2°55.556 7.743692 3.458592 33.323779 10.915913
2004-03-26 07:59:12 51°16.182 2°55.564 7.743692 3.458592 33.323779 10.915913
2004-03-26 07:59:17 51°16.181 2°55.569 7.744955 3.458592 33.325382 11.11817
2004-03-26 07:59:21 51°16.18 2°55.574 7.745198 3.458381 33.323127 11.286717
2004-03-26 07:59:27 51°16.179 2°55.581 7.745052 3.457538 33.314909 10.646238
2004-03-26 07:59:31 51°16.178 2°55.585 7.744275 3.45796 33.317816 9.297862
2004-03-26 07:59:37 51°16.177 2°55.592 7.747237 3.457433 33.314583 10.646238
2004-03-26 07:59:41 51°16.177 2°55.596 7.747237 3.457433 33.314583 10.646238
2004-03-26 07:59:47 51°16.176 2°55.603 7.748548 3.456801 33.305415 9.97205
2004-03-26 07:59:51 51°16.176 2°55.607 7.74816 3.457012 33.30767 10.174306
2004-03-26 07:59:57 51°16.175 2°55.614 7.750734 3.457012 33.308471 9.904631
2004-03-26 08:00:02 51°16.174 2°55.619 7.750491 3.456379 33.300105 10.309144
2004-03-26 08:00:07 51°16.174 2°55.625 7.75525 3.456696 33.302686 10.477691
2004-03-26 08:00:11 51°16.174 2°55.629 7.75525 3.456696 33.302686 10.477691
2004-03-26 08:00:16 51°16.173 2°55.635 7.753696 3.456695 33.301885 10.646238
2004-03-26 08:00:21 51°16.173 2°55.64 7.750977 3.456695 33.300283 10.781076
2004-03-26 08:00:27 51°16.173 2°55.647 7.751948 3.45659 33.299155 10.309144
2004-03-26 08:00:32 51°16.173 2°55.652 7.755687 3.456695 33.301084 9.668665
2004-03-26 08:00:36 51°16.173 2°55.657 7.755687 3.456906 33.301736 10.039469
2004-03-26 08:00:41 51°16.173 2°55.662 7.755687 3.456906 33.301736 10.039469
2004-03-26 08:00:47 51°16.173 2°55.669 7.756269 3.45659 33.295151 10.983332
2004-03-26 08:00:51 51°16.173 2°55.673 7.757046 3.457117 33.301587 10.140597
2004-03-26 08:00:57 51°16.173 2°55.68 7.754376 3.456801 33.298206 9.668665
2004-03-26 08:01:01 51°16.174 2°55.684 7.75457 3.457117 33.300786 9.837212
2004-03-26 08:01:07 51°16.174 2°55.691 7.754327 3.457644 33.30482 10.410272
2004-03-26 08:01:12 51°16.174 2°55.697 7.754327 3.457644 33.30482 10.410272
2004-03-26 08:01:16 51°16.174 2°55.701 7.75491 3.457327 33.300638 10.005759
2004-03-26 08:01:21 51°16.174 2°55.707 7.755007 3.457433 33.302566 10.241725
2004-03-26 08:01:27 51°16.174 2°55.713 7.761465 3.457222 33.301113 10.443982
2004-03-26 08:01:31 51°16.174 2°55.718 7.75253 3.457328 33.303041 10.781076
2004-03-26 08:01:37 51°16.174 2°55.724 7.750831 3.457749 33.305146 10.275435
2004-03-26 08:01:41 51°16.174 2°55.729 7.750831 3.457749 33.305146 10.275435
2004-03-26 08:01:47 51°16.175 2°55.735 7.751608 3.45817 33.311256 10.915913
2004-03-26 08:01:51 51°16.174 2°55.74 7.750491 3.458065 33.310129 10.241725
2004-03-26 08:01:57 51°16.175 2°55.746 7.748937 3.458592 33.314963 10.376563
2004-03-26 08:02:01 51°16.175 2°55.751 7.74986 3.458486 33.31624 10.275435
2004-03-26 08:02:07 51°16.175 2°55.758 7.748306 3.458592 33.317367 10.073178
2004-03-26 08:02:12 51°16.175 2°55.763 7.748306 3.458592 33.317367 10.073178
2004-03-26 08:02:16 51°16.176 2°55.768 7.746946 3.457854 33.311079 10.949623
2004-03-26 08:02:22 51°16.176 2°55.775 7.746897 3.458276 33.316389 9.803503
2004-03-26 08:02:25 51°16.176 2°55.778 7.750637 3.458276 33.316389 10.848494
2004-03-26 08:02:31 51°16.176 2°55.785 7.749131 3.457749 33.312356 10.241725
2004-03-26 08:02:36 51°16.176 2°55.79 7.748646 3.45817 33.316865 9.736084
2004-03-26 08:02:41 51°16.177 2°55.796 7.748646 3.45817 33.316865 9.736084
2004-03-26 08:02:47 51°16.177 2°55.803 7.748354 3.457854 33.315086 10.376563
2004-03-26 08:02:52 51°16.177 2°55.808 7.750539 3.457854 33.314284 9.736084
2004-03-26 08:02:57 51°16.178 2°55.814 7.750637 3.457749 33.312356 9.702375
2004-03-26 08:03:01 51°16.178 2°55.818 7.751802 3.457749 33.312356 10.309144
2004-03-26 08:03:07 51°16.179 2°55.825 7.750491 3.458065 33.316539 10.106888
2004-03-26 08:03:12 51°16.179 2°55.831 7.750491 3.458065 33.316539 10.106888
2004-03-26 08:03:17 51°16.179 2°55.836 7.752676 3.458592 33.320573 10.275435
2004-03-26 08:03:21 51°16.179 2°55.84 7.750831 3.458065 33.313334 10.241725
2004-03-26 08:03:27 51°16.18 2°55.847 7.751656 3.458697 33.320097 10.208016
2004-03-26 08:03:31 51°16.18 2°55.851 7.750539 3.45817 33.31366 10.309144
2004-03-26 08:03:36 51°16.18 2°55.857 7.750879 3.458381 33.316715 10.342853
2004-03-26 08:03:41 51°16.181 2°55.863 7.750879 3.458381 33.316715 10.342853
2004-03-26 08:03:47 51°16.181 2°55.869 7.749083 3.457749 33.30835 10.949623
2004-03-26 08:03:51 51°16.181 2°55.874 7.751511 3.457433 33.306571 9.769794
2004-03-26 08:03:56 51°16.182 2°55.88 7.751316 3.457644 33.308825 9.769794
2004-03-26 08:04:01 51°16.182 2°55.885 7.750345 3.457328 33.307046 10.983332
2004-03-26 08:04:07 51°16.182 2°55.892 7.752045 3.456906 33.301736 10.578819
2004-03-26 08:04:11 51°16.182 2°55.896 7.752045 3.456906 33.301736 10.578819
2004-03-26 08:04:17 51°16.183 2°55.903 7.750831 3.457117 33.303189 10.679947
2004-03-26 08:04:21 51°16.183 2°55.908 7.753842 3.457011 33.302062 11.017042
2004-03-26 08:04:27 51°16.183 2°55.914 7.752822 3.456485 33.295626 10.747366
2004-03-26 08:04:32 51°16.183 2°55.92 7.753599 3.456379 33.294499 11.320426
2004-03-26 08:04:37 51°16.183 2°55.925 7.752093 3.456695 33.298681 10.848494
2004-03-26 08:04:41 51°16.184 2°55.93 7.752093 3.456695 33.298681 10.848494
2004-03-26 08:04:47 51°16.184 2°55.937 7.753696 3.456695 33.298681 11.11817
2004-03-26 08:04:51 51°16.184 2°55.941 7.751511 3.456695 33.29788 11.050751
2004-03-26 08:04:57 51°16.184 2°55.948 7.751802 3.45659 33.295952 11.11817
2004-03-26 08:05:01 51°16.184 2°55.953 7.75491 3.456906 33.300134 10.578819
2004-03-26 08:05:07 51°16.185 2°55.959 7.753696 3.457011 33.30046 9.769794
2004-03-26 08:05:11 51°16.185 2°55.964 7.753696 3.457011 33.30046 9.769794
2004-03-26 08:05:17 51°16.185 2°55.971 7.755687 3.456906 33.298532 11.050751
2004-03-26 08:05:21 51°16.185 2°55.975 7.756609 3.456906 33.299333 11.11817
2004-03-26 08:05:27 51°16.186 2°55.982 7.756561 3.457011 33.298859 11.65752
2004-03-26 08:05:32 51°16.186 2°55.988 7.755492 3.457433 33.302566 10.983332
2004-03-26 08:05:37 51°16.186 2°55.993 7.757095 3.457011 33.298058 11.320426
2004-03-26 08:05:41 51°16.186 2°55.998 7.757095 3.457011 33.298058 11.320426
2004-03-26 08:05:47 51°16.187 2°56.004 7.760445 3.457433 33.302566 11.151879
2004-03-26 08:05:51 51°16.187 2°56.009 7.758212 3.457749 33.305146 11.185589
2004-03-26 08:05:56 51°16.187 2°56.015 7.758989 3.457538 33.302892 10.848494
2004-03-26 08:06:01 51°16.188 2°56.021 7.7586 3.457854 33.305472 11.590101
2004-03-26 08:06:07 51°16.187 2°56.027 7.760445 3.45796 33.305798 11.11817
2004-03-26 08:06:12 51°16.188 2°56.033 7.760445 3.45796 33.305798 11.11817
2004-03-26 08:06:17 51°16.188 2°56.039 7.7586 3.458065 33.306124 12.297999
2004-03-26 08:06:21 51°16.188 2°56.043 7.7586 3.458065 33.306124 10.882204
2004-03-26 08:06:27 51°16.188 2°56.05 7.758891 3.457749 33.302743 10.443982
2004-03-26 08:06:31 51°16.188 2°56.054 7.762679 3.458486 33.309831 11.08446
2004-03-26 08:06:36 51°16.188 2°56.06 7.76161 3.45796 33.304997 10.747366
2004-03-26 08:06:41 51°16.189 2°56.066 7.76161 3.45796 33.304997 10.747366
2004-03-26 08:06:47 51°16.189 2°56.072 7.760299 3.457643 33.300015 11.11817
2004-03-26 08:06:52 51°16.19 2°56.077 7.762193 3.458065 33.307726 10.848494
2004-03-26 08:06:57 51°16.19 2°56.083 7.761271 3.457854 33.302269 11.017042
2004-03-26 08:07:01 51°16.19 2°56.087 7.756949 3.457749 33.301142 11.792358
2004-03-26 08:07:07 51°16.191 2°56.094 7.758017 3.457433 33.297761 12.533965
2004-03-26 08:07:11 51°16.191 2°56.098 7.758017 3.457433 33.297761 12.533965
2004-03-26 08:07:16 51°16.192 2°56.103 7.756804 3.457117 33.295181 11.11817
2004-03-26 08:07:21 51°16.192 2°56.109 7.758843 3.45659 33.289547 11.08446
2004-03-26 08:07:27 51°16.193 2°56.115 7.757726 3.456695 33.293076 12.163161
2004-03-26 08:07:32 51°16.194 2°56.121 7.75525 3.456169 33.286641 12.062033
2004-03-26 08:07:36 51°16.195 2°56.125 7.75593 3.455537 33.279879 11.65752
2004-03-26 08:07:41 51°16.195 2°56.13 7.75593 3.455537 33.279879 11.65752
2004-03-26 08:07:47 51°16.197 2°56.136 7.754618 3.455642 33.279406 10.747366
2004-03-26 08:07:52 51°16.197 2°56.142 7.754764 3.455431 33.277952 12.163161
2004-03-26 08:07:57 51°16.199 2°56.147 7.755395 3.454588 33.271338 10.5114
2004-03-26 08:08:01 51°16.199 2°56.151 7.75423 3.454378 33.269085 11.08446
2004-03-26 08:08:07 51°16.2 2°56.158 7.754618 3.453535 33.25927 10.713657
2004-03-26 08:08:11 51°16.201 2°56.162 7.754618 3.453535 33.25927 10.713657
2004-03-26 08:08:16 51°16.202 2°56.167 7.753453 3.45364 33.261197 11.11817
2004-03-26 08:08:21 51°16.203 2°56.173 7.75321 3.453324 33.257817 11.219298
2004-03-26 08:08:27 51°16.203 2°56.179 7.753987 3.453008 33.254436 11.017042
2004-03-26 08:08:31 51°16.204 2°56.184 7.752725 3.452482 33.250402 11.758648
2004-03-26 08:08:36 51°16.205 2°56.189 7.753307 3.451955 33.243169 12.297999
2004-03-26 08:08:42 51°16.205 2°56.196 7.75457 3.452271 33.247349 11.320426
2004-03-26 08:08:47 51°16.206 2°56.202 7.75457 3.452271 33.247349 11.320426
2004-03-26 08:08:52 51°16.206 2°56.207 7.75423 3.451849 33.242842 11.455264
2004-03-26 08:08:57 51°16.206 2°56.213 7.753599 3.451639 33.242187 11.758648
2004-03-26 08:09:01 51°16.206 2°56.218 7.753939 3.451007 33.235427 11.893486
2004-03-26 08:09:07 51°16.207 2°56.225 7.755638 3.451217 33.236881 11.017042
2004-03-26 08:09:11 51°16.207 2°56.229 7.755638 3.451217 33.236881 11.017042
2004-03-26 08:09:16 51°16.208 2°56.235 7.754424 3.450901 33.233501 10.781076
2004-03-26 08:09:21 51°16.208 2°56.24 7.75758 3.451217 33.23768 11.724939
2004-03-26 08:09:27 51°16.209 2°56.247 7.752093 3.450901 33.233501 11.286717
2004-03-26 08:09:32 51°16.209 2°56.253 7.753842 3.451112 33.234955 11.286717
2004-03-26 08:09:37 51°16.209 2°56.258 7.755153 3.450901 33.232701 12.196871
2004-03-26 08:09:42 51°16.21 2°56.264 7.755153 3.450901 33.232701 12.196871
2004-03-26 08:09:47 51°16.21 2°56.27 7.751462 3.450691 33.230448 11.050751
2004-03-26 08:09:51 51°16.21 2°56.274 7.752045 3.450796 33.232374 11.826067
2004-03-26 08:09:57 51°16.211 2°56.281 7.763164 3.450164 33.224815 10.983332
2004-03-26 08:10:01 51°16.211 2°56.285 7.756609 3.450375 33.227867 11.556392
2004-03-26 08:10:07 51°16.212 2°56.292 7.75457 3.449005 33.213221 11.859777
2004-03-26 08:10:12 51°16.212 2°56.298 7.75457 3.449005 33.213221 11.859777
2004-03-26 08:10:17 51°16.213 2°56.303 7.75593 3.449953 33.225758 11.927195
2004-03-26 08:10:22 51°16.213 2°56.309 7.753647 3.450269 33.225941 11.927195
2004-03-26 08:10:27 51°16.213 2°56.315 7.751753 3.450375 33.227068 11.219298
2004-03-26 08:10:32 51°16.213 2°56.321 7.753842 3.450269 33.225941 11.488973
2004-03-26 08:10:37 51°16.214 2°56.326 7.753502 3.450059 33.223688 13.140734
2004-03-26 08:10:41 51°16.214 2°56.331 7.753502 3.450059 33.223688 13.140734
2004-03-26 08:10:47 51°16.214 2°56.338 7.758212 3.449637 33.219182 12.264289
2004-03-26 08:10:51 51°16.214 2°56.342 7.756561 3.449953 33.222562 12.533965
2004-03-26 08:10:57 51°16.214 2°56.349 7.755007 3.449742 33.221906 12.365418
2004-03-26 08:11:01 51°16.214 2°56.354 7.755832 3.449216 33.215474 11.69123
2004-03-26 08:11:07 51°16.215 2°56.361 7.75792 3.449532 33.218055 12.972187
2004-03-26 08:11:11 51°16.214 2°56.366 7.75792 3.449532 33.218055 12.972187
2004-03-26 08:11:17 51°16.214 2°56.372 7.755055 3.449742 33.220308 12.297999
2004-03-26 08:11:21 51°16.214 2°56.377 7.755978 3.449637 33.219182 12.331708
2004-03-26 08:11:27 51°16.214 2°56.384 7.756949 3.449216 33.214675 12.23058
2004-03-26 08:11:31 51°16.214 2°56.388 7.755007 3.449005 33.210825 13.208153
2004-03-26 08:11:36 51°16.214 2°56.394 7.756027 3.449005 33.212422 13.039606
2004-03-26 08:11:41 51°16.214 2°56.4 7.756027 3.449005 33.212422 13.039606
2004-03-26 08:11:47 51°16.213 2°56.407 7.756124 3.448794 33.20937 12.163161
2004-03-26 08:11:51 51°16.213 2°56.411 7.75491 3.448584 33.207916 13.107024
2004-03-26 08:11:57 51°16.212 2°56.418 7.764184 3.448162 33.202611 13.241862
2004-03-26 08:12:01 51°16.211 2°56.423 7.760931 3.447846 33.197635 13.309281
2004-03-26 08:12:07 51°16.21 2°56.43 7.757726 3.447214 33.192473 12.095742
2004-03-26 08:12:11 51°16.209 2°56.434 7.757726 3.447214 33.192473 12.095742
2004-03-26 08:12:16 51°16.207 2°56.44 7.755541 3.447109 33.192145 12.871059
2004-03-26 08:12:21 51°16.205 2°56.444 7.754861 3.447214 33.191675 11.994614
2004-03-26 08:12:27 51°16.203 2°56.449 7.752385 3.447003 33.19022 12.533965
2004-03-26 08:12:32 51°16.2 2°56.453 7.752579 3.446582 33.185715 12.500255
2004-03-26 08:12:37 51°16.198 2°56.456 7.753793 3.44595 33.18135 12.297999
2004-03-26 08:12:41 51°16.196 2°56.459 7.753793 3.44595 33.18135 12.297999
2004-03-26 08:12:47 51°16.194 2°56.462 7.751802 3.445213 33.173465 13.882341
2004-03-26 08:12:52 51°16.191 2°56.464 7.752579 3.445213 33.172667 13.073315
2004-03-26 08:12:56 51°16.189 2°56.466 7.751171 3.445423 33.175718 12.80364
2004-03-26 08:13:01 51°16.186 2°56.468 7.74986 3.444265 33.16572 12.567674
2004-03-26 08:13:07 51°16.183 2°56.469 7.751414 3.444581 33.168302 13.646375
2004-03-26 08:13:11 51°16.181 2°56.471 7.751414 3.444581 33.168302 13.646375
2004-03-26 08:13:16 51°16.179 2°56.471 7.752191 3.444265 33.164922 13.3767
2004-03-26 08:13:21 51°16.176 2°56.472 7.751802 3.444054 33.164265 13.005896
2004-03-26 08:13:27 51°16.173 2°56.473 7.751316 3.443422 33.157506 14.320563
2004-03-26 08:13:31 51°16.171 2°56.474 7.750394 3.443422 33.157506 13.34299
2004-03-26 08:13:37 51°16.168 2°56.474 7.753162 3.443632 33.158961 12.938477
2004-03-26 08:13:41 51°16.166 2°56.474 7.753162 3.443632 33.158961 12.938477
2004-03-26 08:13:47 51°16.162 2°56.474 7.756658 3.443422 33.156708 13.241862
2004-03-26 08:13:51 51°16.16 2°56.474 7.755492 3.443106 33.152532 13.882341
2004-03-26 08:13:57 51°16.157 2°56.474 7.755687 3.443316 33.153987 14.623947
2004-03-26 08:14:01 51°16.155 2°56.474 7.755832 3.443106 33.152532 14.522819
2004-03-26 08:14:05 51°16.153 2°56.473 7.755055 3.443316 33.15319 13.646375
2004-03-26 08:14:12 51°16.149 2°56.472 7.755055 3.443316 33.15319 13.646375
2004-03-26 08:14:17 51°16.147 2°56.472 7.755978 3.443 33.149811 13.949759
2004-03-26 08:14:21 51°16.145 2°56.471 7.756464 3.443211 33.150469 14.387982
2004-03-26 08:14:27 51°16.142 2°56.47 7.755784 3.443211 33.151266 13.34299
2004-03-26 08:14:31 51°16.139 2°56.469 7.758746 3.443106 33.148546 13.882341
2004-03-26 08:14:37 51°16.136 2°56.469 7.759523 3.44279 33.145964 13.91605
2004-03-26 08:14:41 51°16.134 2°56.468 7.759523 3.44279 33.145964 13.91605
2004-03-26 08:14:47 51°16.13 2°56.468 7.760979 3.443 33.14742 14.219435
2004-03-26 08:14:51 51°16.127 2°56.467 7.761562 3.442579 33.143712 13.477828
2004-03-26 08:14:57 51°16.123 2°56.466 7.761319 3.442684 33.144838 14.253144
2004-03-26 08:15:01 51°16.119 2°56.466 7.761708 3.443 33.146623 14.219435
2004-03-26 08:15:07 51°16.115 2°56.464 7.761319 3.44279 33.141979 14.421691
2004-03-26 08:15:11 51°16.111 2°56.463 7.761319 3.44279 33.141979 14.421691
2004-03-26 08:15:16 51°16.107 2°56.461 7.763892 3.443211 33.146484 14.48911
2004-03-26 08:15:21 51°16.103 2°56.459 7.765252 3.442895 33.142309 14.48911
2004-03-26 08:15:27 51°16.097 2°56.456 7.761853 3.443 33.141841 13.309281
2004-03-26 08:15:31 51°16.094 2°56.453 7.760785 3.443106 33.143764 14.152016
2004-03-26 08:15:37 51°16.088 2°56.449 7.761805 3.443211 33.143296 14.387982
2004-03-26 08:15:41 51°16.084 2°56.445 7.761805 3.443211 33.143296 14.387982
2004-03-26 08:15:47 51°16.079 2°56.44 7.758746 3.443316 33.143626 14.185725
2004-03-26 08:15:51 51°16.076 2°56.436 7.761319 3.443422 33.144752 13.208153
2004-03-26 08:15:57 51°16.071 2°56.429 7.757046 3.443422 33.147142 13.882341
2004-03-26 08:16:01 51°16.067 2°56.425 7.758163 3.443211 33.146484 14.893623
2004-03-26 08:16:07 51°16.063 2°56.417 7.757726 3.443632 33.149394 14.657657
2004-03-26 08:16:11 51°16.06 2°56.412 7.756561 3.443527 33.149065 14.657657
2004-03-26 08:16:16 51°16.056 2°56.406 7.756561 3.443527 33.149065 14.657657
2004-03-26 08:16:21 51°16.052 2°56.399 7.757726 3.443316 33.148407 14.522819
2004-03-26 08:16:27 51°16.048 2°56.391 7.753793 3.443632 33.150988 14.590238
2004-03-26 08:16:31 51°16.045 2°56.386 7.75457 3.443948 33.155961 15.534101
2004-03-26 08:16:36 51°16.041 2°56.378 7.75355 3.444475 33.160795 16.17458
2004-03-26 08:16:41 51°16.038 2°56.371 7.753647 3.443948 33.157556 14.691366
2004-03-26 08:16:47 51°16.034 2°56.363 7.753647 3.443948 33.157556 14.691366
2004-03-26 08:16:51 51°16.031 2°56.357 7.753356 3.44458 33.162719 14.522819
2004-03-26 08:16:56 51°16.028 2°56.35 7.753307 3.444054 33.160277 14.084597
2004-03-26 08:17:01 51°16.024 2°56.343 7.750637 3.444159 33.161403 15.331845
2004-03-26 08:17:07 51°16.021 2°56.335 7.753307 3.444791 33.168161 15.60152
2004-03-26 08:17:12 51°16.018 2°56.327 7.753307 3.444791 33.168161 15.60152
2004-03-26 08:17:17 51°16.015 2°56.32 7.750734 3.444581 33.166706 14.994751
2004-03-26 08:17:21 51°16.013 2°56.314 7.751122 3.445107 33.173136 15.63523
2004-03-26 08:17:27 51°16.009 2°56.306 7.751462 3.444897 33.171681 14.893623
2004-03-26 08:17:31 51°16.007 2°56.3 7.752142 3.444581 33.168302 15.399264
2004-03-26 08:17:37 51°16.004 2°56.292 7.751462 3.445318 33.176187 15.298136
2004-03-26 08:17:41 51°16.002 2°56.286 7.751462 3.445318 33.176187 15.298136
2004-03-26 08:17:47 51°15.998 2°56.277 7.752579 3.445107 33.173934 15.500392
2004-03-26 08:17:51 51°15.997 2°56.271 7.751753 3.445739 33.179895 16.680221
2004-03-26 08:17:57 51°15.993 2°56.262 7.751608 3.445845 33.182617 16.309418
2004-03-26 08:18:01 51°15.992 2°56.256 7.750977 3.445634 33.179566 15.365554
2004-03-26 08:18:07 51°15.989 2°56.247 7.755007 3.44595 33.183744 16.006033
2004-03-26 08:18:12 51°15.987 2°56.24 7.755007 3.44595 33.183744 16.006033
2004-03-26 08:18:15 51°15.985 2°56.235 7.755055 3.446266 33.185527 15.904905
2004-03-26 08:18:21 51°15.983 2°56.226 7.753453 3.446371 33.187452 15.803777
2004-03-26 08:18:27 51°15.98 2°56.217 7.752725 3.446477 33.189377 15.702648
2004-03-26 08:18:31 51°15.979 2°56.211 7.754084 3.446371 33.185856 16.309418
2004-03-26 08:18:36 51°15.977 2°56.203 7.756949 3.446687 33.189235 16.74764
2004-03-26 08:18:41 51°15.975 2°56.195 7.756949 3.446687 33.189235 16.74764
2004-03-26 08:18:46 51°15.973 2°56.187 7.755832 3.447109 33.192943 16.477965
2004-03-26 08:18:52 51°15.972 2°56.177 7.756658 3.447003 33.191817 16.309418
2004-03-26 08:18:57 51°15.97 2°56.17 7.756512 3.447214 33.195666 16.073452
2004-03-26 08:19:01 51°15.969 2°56.163 7.752433 3.447846 33.201627 16.983606
2004-03-26 08:19:07 51°15.967 2°56.154 7.755492 3.447636 33.198576 16.511674
2004-03-26 08:19:11 51°15.966 2°56.147 7.755492 3.447636 33.198576 16.511674
2004-03-26 08:19:17 51°15.964 2°56.138 7.752725 3.448268 33.203738 15.365554
2004-03-26 08:19:21 51°15.963 2°56.131 7.753842 3.448478 33.206789 16.444255
2004-03-26 08:19:27 51°15.962 2°56.121 7.752239 3.448689 33.21064 15.837486
2004-03-26 08:19:31 51°15.961 2°56.115 7.752579 3.4489 33.212094 15.432973
2004-03-26 08:19:37 51°15.96 2°56.105 7.753016 3.449005 33.213221 16.107161
2004-03-26 08:19:41 51°15.959 2°56.099 7.753016 3.449005 33.213221 16.107161
2004-03-26 08:19:47 51°15.958 2°56.089 7.753016 3.44911 33.215146 15.63523
2004-03-26 08:19:52 51°15.958 2°56.081 7.753065 3.449321 33.216601 15.702648
2004-03-26 08:19:57 51°15.957 2°56.073 7.753599 3.449532 33.218055 16.17458
2004-03-26 08:20:01 51°15.956 2°56.067 7.75321 3.449953 33.22416 15.432973
2004-03-26 08:20:07 51°15.955 2°56.057 7.753647 3.449637 33.22078 16.71393
2004-03-26 08:20:11 51°15.955 2°56.051 7.753647 3.449637 33.22078 16.71393
2004-03-26 08:20:17 51°15.954 2°56.041 7.754861 3.450164 33.226413 16.444255
2004-03-26 08:20:21 51°15.953 2°56.035 7.753647 3.450059 33.226085 16.275708
2004-03-26 08:20:27 51°15.953 2°56.025 7.755784 3.450059 33.226085 16.477965
2004-03-26 08:20:32 51°15.952 2°56.017 7.755638 3.450796 33.233173 15.871195
2004-03-26 08:20:37 51°15.952 2°56.009 7.756901 3.450691 33.232046 16.646512
2004-03-26 08:20:41 51°15.951 2°56.003 7.756901 3.450691 33.232046 16.646512
2004-03-26 08:20:47 51°15.951 2°55.994 7.755638 3.45048 33.229793 17.3207
2004-03-26 08:20:51 51°15.95 2°55.987 7.754133 3.451007 33.233828 16.477965
2004-03-26 08:20:56 51°15.95 2°55.979 7.755978 3.451112 33.234156 16.17458
2004-03-26 08:21:01 51°15.949 2°55.971 7.754084 3.451323 33.237208 15.432973
2004-03-26 08:21:07 51°15.949 2°55.962 7.755153 3.451217 33.235282 16.410546
2004-03-26 08:21:11 51°15.949 2°55.956 7.755153 3.451217 33.235282 16.410546
2004-03-26 08:21:17 51°15.948 2°55.947 7.756124 3.451849 33.242842 15.230717
2004-03-26 08:21:21 51°15.948 2°55.94 7.754133 3.451533 33.239462 15.197007
2004-03-26 08:21:27 51°15.948 2°55.931 7.756269 3.451849 33.243641 15.365554
2004-03-26 08:21:31 51°15.947 2°55.925 7.753987 3.452165 33.246222 15.567811
2004-03-26 08:21:36 51°15.947 2°55.917 7.755735 3.452271 33.246549 16.612802
2004-03-26 08:21:41 51°15.947 2°55.909 7.755735 3.452271 33.246549 16.612802
2004-03-26 08:21:47 51°15.946 2°55.9 7.755492 3.452482 33.249602 15.264426
2004-03-26 08:21:52 51°15.946 2°55.892 7.755153 3.452903 33.254109 15.60152
2004-03-26 08:21:57 51°15.946 2°55.884 7.75423 3.453219 33.25749 15.331845
2004-03-26 08:22:01 51°15.946 2°55.878 7.754618 3.452692 33.252655 15.837486
2004-03-26 08:22:07 51°15.946 2°55.869 7.755638 3.452903 33.25331 15.736358
2004-03-26 08:22:11 51°15.945 2°55.862 7.755638 3.452903 33.25331 15.736358
2004-03-26 08:22:17 51°15.945 2°55.853 7.754133 3.45343 33.258943 15.534101
2004-03-26 08:22:21 51°15.945 2°55.847 7.754473 3.453535 33.26087 15.938614
2004-03-26 08:22:27 51°15.945 2°55.837 7.753453 3.45364 33.261997 15.938614
2004-03-26 08:22:31 51°15.946 2°55.831 7.752676 3.453746 33.263924 16.646512
2004-03-26 08:22:37 51°15.946 2°55.822 7.753793 3.453956 33.264577 16.309418
2004-03-26 08:22:41 51°15.946 2°55.816 7.753793 3.453956 33.264577 16.309418
2004-03-26 08:22:45 51°15.946 2°55.809 7.753016 3.454062 33.267304 16.309418
2004-03-26 08:22:52 51°15.946 2°55.799 7.752919 3.453746 33.264724 16.140871
2004-03-26 08:22:57 51°15.947 2°55.791 7.753356 3.454378 33.271485 15.534101
2004-03-26 08:23:01 51°15.947 2°55.785 7.754084 3.454483 33.271812 15.770067
2004-03-26 08:23:07 51°15.947 2°55.776 7.754618 3.454483 33.272612 15.230717
2004-03-26 08:23:11 51°15.948 2°55.77 7.754618 3.454483 33.272612 15.230717
2004-03-26 08:23:17 51°15.948 2°55.761 7.753793 3.454483 33.272612 15.298136
2004-03-26 08:23:21 51°15.948 2°55.755 7.75525 3.454694 33.274065 16.579093
2004-03-26 08:23:27 51°15.948 2°55.746 7.75491 3.454483 33.273412 15.500392
2004-03-26 08:23:32 51°15.949 2°55.738 7.755153 3.454799 33.274392 15.904905
2004-03-26 08:23:37 51°15.949 2°55.731 7.755007 3.455221 33.2789 15.399264
2004-03-26 08:23:41 51°15.949 2°55.725 7.755687 3.455326 33.280827 16.006033
2004-03-26 08:23:47 51°15.95 2°55.716 7.755687 3.455326 33.280827 16.006033
2004-03-26 08:23:51 51°15.95 2°55.71 7.757532 3.455537 33.28148 16.039742
2004-03-26 08:23:57 51°15.951 2°55.701 7.756415 3.456063 33.287915 15.63523
2004-03-26 08:24:01 51°15.951 2°55.695 7.758212 3.455853 33.286462 15.399264
2004-03-26 08:24:07 51°15.952 2°55.686 7.761562 3.456379 33.290495 15.736358
2004-03-26 08:24:11 51°15.952 2°55.68 7.761562 3.456379 33.290495 15.736358
2004-03-26 08:24:17 51°15.953 2°55.671 7.759377 3.455853 33.284861 15.803777
2004-03-26 08:24:21 51°15.954 2°55.665 7.759668 3.456695 33.293076 16.444255
2004-03-26 08:24:27 51°15.954 2°55.657 7.762533 3.457011 33.296456 16.410546
2004-03-26 08:24:32 51°15.955 2°55.649 7.762096 3.457011 33.295656 15.837486
2004-03-26 08:24:37 51°15.956 2°55.642 7.762484 3.457327 33.299036 16.309418
2004-03-26 08:24:41 51°15.956 2°55.637 7.762484 3.457327 33.299036 16.309418
2004-03-26 08:24:47 51°15.957 2°55.628 7.764087 3.457222 33.296308 15.534101
2004-03-26 08:24:51 51°15.958 2°55.622 7.761319 3.457327 33.297435 15.702648
2004-03-26 08:24:55 51°15.958 2°55.617 7.762193 3.457643 33.299214 15.466683
2004-03-26 08:25:01 51°15.959 2°55.608 7.762824 3.457854 33.300667 16.140871
2004-03-26 08:25:07 51°15.96 2°55.6 7.762484 3.457749 33.300341 14.758785
2004-03-26 08:25:11 51°15.961 2°55.594 7.762484 3.457749 33.300341 14.758785
2004-03-26 08:25:17 51°15.962 2°55.586 7.762727 3.45817 33.304048 14.826204
2004-03-26 08:25:21 51°15.962 2°55.58 7.762533 3.458276 33.305175 15.60152
2004-03-26 08:25:27 51°15.963 2°55.572 7.761222 3.458592 33.308555 14.859913
2004-03-26 08:25:31 51°15.964 2°55.566 7.76195 3.458276 33.305976 15.871195
2004-03-26 08:25:36 51°15.965 2°55.559 7.762824 3.458802 33.310008 15.399264
2004-03-26 08:25:41 51°15.966 2°55.552 7.762824 3.458802 33.310008 15.399264
2004-03-26 08:25:47 51°15.967 2°55.543 7.763164 3.459329 33.316443 15.06217
2004-03-26 08:25:52 51°15.967 2°55.536 7.764426 3.459329 33.317245 15.567811
2004-03-26 08:25:57 51°15.968 2°55.529 7.760251 3.459434 33.318371 14.522819
2004-03-26 08:26:01 51°15.969 2°55.523 7.76161 3.45954 33.318697 15.197007
2004-03-26 08:26:07 51°15.97 2°55.515 7.761902 3.460172 33.324658 14.792494
2004-03-26 08:26:11 51°15.97 2°55.509 7.761902 3.460172 33.324658 14.792494
2004-03-26 08:26:15 51°15.971 2°55.503 7.762047 3.460172 33.324658 14.994751
2004-03-26 08:26:21 51°15.972 2°55.494 7.762436 3.460383 33.326911 14.590238
2004-03-26 08:26:27 51°15.973 2°55.486 7.762193 3.460383 33.328514 15.02846
2004-03-26 08:26:32 51°15.974 2°55.479 7.760882 3.460699 33.331094 14.48911
2004-03-26 08:26:37 51°15.975 2°55.472 7.762824 3.460699 33.333498 14.859913
2004-03-26 08:26:41 51°15.976 2°55.466 7.762824 3.460699 33.333498 14.859913
2004-03-26 08:26:47 51°15.977 2°55.457 7.761659 3.460804 33.331419 15.466683
2004-03-26 08:26:51 51°15.977 2°55.452 7.763455 3.460699 33.330292 14.893623
2004-03-26 08:26:57 51°15.978 2°55.443 7.763164 3.460909 33.332546 14.084597
2004-03-26 08:27:01 51°15.979 2°55.438 7.76195 3.460699 33.331094 15.264426
2004-03-26 08:27:07 51°15.98 2°55.429 7.760397 3.461015 33.334475 15.298136
2004-03-26 08:27:12 51°15.981 2°55.422 7.762533 3.461225 33.336729 14.421691
2004-03-26 08:27:16 51°15.982 2°55.417 7.762533 3.461225 33.336729 14.421691
2004-03-26 08:27:21 51°15.983 2°55.41 7.761173 3.461752 33.34076 14.691366
2004-03-26 08:27:27 51°15.984 2°55.401 7.762387 3.461331 33.335451 14.4554
2004-03-26 08:27:32 51°15.985 2°55.395 7.763747 3.461541 33.339308 14.590238
2004-03-26 08:27:37 51°15.987 2°55.388 7.762193 3.460593 33.329967 14.792494
2004-03-26 08:27:41 51°15.987 2°55.382 7.762193 3.460593 33.329967 14.792494
2004-03-26 08:27:47 51°15.989 2°55.374 7.762096 3.461752 33.342364 13.949759
2004-03-26 08:27:51 51°15.99 2°55.368 7.763018 3.461225 33.336729 14.691366
2004-03-26 08:27:56 51°15.991 2°55.362 7.763018 3.461436 33.338181 14.590238
2004-03-26 08:28:02 51°15.993 2°55.354 7.761125 3.461541 33.34011 14.185725
2004-03-26 08:28:07 51°15.994 2°55.347 7.762436 3.461436 33.338983 15.331845
2004-03-26 08:28:12 51°15.995 2°55.341 7.762436 3.461436 33.338983 15.331845
2004-03-26 08:28:17 51°15.997 2°55.334 7.763747 3.461541 33.339308 15.331845
2004-03-26 08:28:21 51°15.997 2°55.328 7.763164 3.46112 33.3348 15.466683
2004-03-26 08:28:25 51°15.998 2°55.323 7.761708 3.46112 33.3348 14.994751
2004-03-26 08:28:32 51°16 2°55.314 7.764281 3.460909 33.333348 14.994751
2004-03-26 08:28:37 51°16.001 2°55.307 7.761319 3.460699 33.330292 14.421691
2004-03-26 08:28:42 51°16.002 2°55.3 7.761319 3.460699 33.330292 14.421691
2004-03-26 08:28:47 51°16.003 2°55.293 7.763407 3.460383 33.32611 14.691366
2004-03-26 08:28:52 51°16.004 2°55.286 7.763795 3.460593 33.329967 14.48911
2004-03-26 08:28:57 51°16.005 2°55.279 7.762096 3.460804 33.330618 14.725076
2004-03-26 08:29:01 51°16.005 2°55.273 7.763504 3.460804 33.331419 14.48911
2004-03-26 08:29:07 51°16.006 2°55.265 7.762387 3.460699 33.331895 14.219435
2004-03-26 08:29:11 51°16.007 2°55.259 7.762387 3.460699 33.331895 14.219435
2004-03-26 08:29:16 51°16.008 2°55.252 7.762679 3.460909 33.331745 14.152016
2004-03-26 08:29:21 51°16.009 2°55.245 7.763261 3.461436 33.338983 15.331845
2004-03-26 08:29:27 51°16.01 2°55.237 7.764621 3.461225 33.335927 15.365554
2004-03-26 08:29:32 51°16.011 2°55.23 7.763747 3.461225 33.336729 14.017178
2004-03-26 08:29:37 51°16.012 2°55.223 7.764378 3.461225 33.334324 14.893623
2004-03-26 08:29:41 51°16.012 2°55.217 7.764378 3.461225 33.334324 14.893623
2004-03-26 08:29:47 51°16.013 2°55.209 7.76331 3.461857 33.341887 15.129589
2004-03-26 08:29:51 51°16.014 2°55.203 7.765834 3.461225 33.336729 14.421691
2004-03-26 08:29:57 51°16.015 2°55.194 7.763018 3.461647 33.339633 15.02846
2004-03-26 08:30:01 51°16.016 2°55.188 7.763164 3.461752 33.339959 14.657657
2004-03-26 08:30:07 51°16.017 2°55.18 7.761465 3.461331 33.337856 14.387982
2004-03-26 08:30:11 51°16.017 2°55.174 7.761465 3.461331 33.337856 14.387982
2004-03-26 08:30:16 51°16.018 2°55.167 7.763116 3.461647 33.339633 14.859913
2004-03-26 08:30:21 51°16.019 2°55.16 7.76195 3.461752 33.339157 14.691366
2004-03-26 08:30:27 51°16.02 2°55.152 7.76331 3.461436 33.335777 14.556529
2004-03-26 08:30:31 51°16.02 2°55.146 7.761076 3.461541 33.338506 14.859913
2004-03-26 08:30:36 51°16.021 2°55.139 7.762096 3.461647 33.340435 14.253144
2004-03-26 08:30:42 51°16.022 2°55.131 7.762096 3.461647 33.340435 14.253144
2004-03-26 08:30:47 51°16.023 2°55.124 7.762387 3.461436 33.33738 14.623947
2004-03-26 08:30:51 51°16.024 2°55.118 7.760348 3.461752 33.34076 14.219435
2004-03-26 08:30:56 51°16.025 2°55.111 7.760542 3.461436 33.338983 14.152016
2004-03-26 08:31:01 51°16.026 2°55.104 7.760057 3.461541 33.340911 15.500392
2004-03-26 08:31:07 51°16.027 2°55.096 7.762727 3.461436 33.338181 15.163298
2004-03-26 08:31:11 51°16.028 2°55.09 7.762727 3.461436 33.338181 15.163298
2004-03-26 08:31:17 51°16.029 2°55.082 7.761902 3.461331 33.337856 14.994751
2004-03-26 08:31:21 51°16.029 2°55.076 7.759571 3.461225 33.33753 14.758785
2004-03-26 08:31:25 51°16.03 2°55.07 7.759863 3.46112 33.336403 15.298136
2004-03-26 08:31:32 51°16.031 2°55.06 7.758163 3.461225 33.33753 14.354272
2004-03-26 08:31:37 51°16.032 2°55.053 7.760494 3.461225 33.33753 15.02846
2004-03-26 08:31:41 51°16.032 2°55.047 7.760494 3.461225 33.33753 15.02846
2004-03-26 08:31:47 51°16.034 2°55.039 7.75928 3.460804 33.333022 14.354272
2004-03-26 08:31:51 51°16.034 2°55.033 7.757872 3.460909 33.334951 14.961042
2004-03-26 08:31:56 51°16.035 2°55.026 7.755784 3.460593 33.333172 15.399264
2004-03-26 08:32:01 51°16.036 2°55.019 7.757192 3.460488 33.330442 15.399264
2004-03-26 08:32:07 51°16.037 2°55.01 7.757386 3.460804 33.335427 14.893623
2004-03-26 08:32:12 51°16.038 2°55.003 7.757386 3.460804 33.335427 14.893623
2004-03-26 08:32:17 51°16.039 2°54.996 7.758017 3.461015 33.336879 14.994751
2004-03-26 08:32:21 51°16.04 2°54.99 7.756464 3.460909 33.335752 15.534101
2004-03-26 08:32:27 51°16.041 2°54.982 7.757338 3.460699 33.336704 14.421691
2004-03-26 08:32:31 51°16.041 2°54.976 7.756609 3.461015 33.340086 14.354272
2004-03-26 08:32:37 51°16.043 2°54.968 7.756269 3.460699 33.336704 14.48911
2004-03-26 08:32:41 51°16.044 2°54.962 7.756269 3.460699 33.336704 14.48911
2004-03-26 08:32:47 51°16.044 2°54.953 7.754764 3.46112 33.33961 13.882341
2004-03-26 08:32:51 51°16.045 2°54.948 7.756027 3.460699 33.335903 15.466683
2004-03-26 08:32:56 51°16.046 2°54.941 7.756269 3.460699 33.335101 14.657657
2004-03-26 08:33:01 51°16.047 2°54.934 7.756172 3.46112 33.340411 14.961042
2004-03-26 08:33:07 51°16.048 2°54.925 7.755153 3.46112 33.342015 15.938614
2004-03-26 08:33:11 51°16.049 2°54.919 7.755153 3.46112 33.342015 15.938614
2004-03-26 08:33:17 51°16.05 2°54.911 7.754861 3.460909 33.340562 14.185725
2004-03-26 08:33:21 51°16.051 2°54.905 7.755541 3.461015 33.340888 13.747503
2004-03-26 08:33:27 51°16.053 2°54.897 7.755395 3.460699 33.337506 15.163298
2004-03-26 08:33:31 51°16.054 2°54.892 7.754279 3.460699 33.337506 15.365554
2004-03-26 08:33:36 51°16.055 2°54.885 7.754764 3.46112 33.342015 14.48911
2004-03-26 08:33:41 51°16.056 2°54.878 7.754764 3.46112 33.342015 14.48911
2004-03-26 08:33:47 51°16.057 2°54.869 7.755153 3.461015 33.340086 13.781212
2004-03-26 08:33:51 51°16.058 2°54.864 7.753939 3.46112 33.341213 14.725076
2004-03-26 08:33:57 51°16.059 2°54.855 7.75491 3.46112 33.342817 14.691366
2004-03-26 08:34:01 51°16.06 2°54.849 7.756609 3.46112 33.342817 14.758785
2004-03-26 08:34:07 51°16.061 2°54.841 7.75423 3.461331 33.344269 15.197007
2004-03-26 08:34:11 51°16.062 2°54.835 7.755395 3.461015 33.340888 14.556529
2004-03-26 08:34:16 51°16.062 2°54.828 7.755395 3.461015 33.340888 14.556529
2004-03-26 08:34:21 51°16.063 2°54.821 7.752239 3.460909 33.341364 14.017178
2004-03-26 08:34:27 51°16.064 2°54.812 7.753016 3.460909 33.339761 14.286853
2004-03-26 08:34:32 51°16.064 2°54.805 7.754618 3.46112 33.342817 13.578956
2004-03-26 08:34:37 51°16.065 2°54.798 7.754764 3.461541 33.345722 14.354272
2004-03-26 08:34:41 51°16.065 2°54.792 7.756755 3.461436 33.346199 14.758785
2004-03-26 08:34:47 51°16.066 2°54.783 7.756755 3.461436 33.346199 14.758785
2004-03-26 08:34:51 51°16.066 2°54.777 7.756318 3.461331 33.345873 13.444118
2004-03-26 08:34:57 51°16.067 2°54.768 7.756124 3.461015 33.34169 13.781212
2004-03-26 08:35:01 51°16.067 2°54.762 7.757678 3.460488 33.336053 13.983469
2004-03-26 08:35:07 51°16.068 2°54.754 7.757435 3.460804 33.338633 14.253144
2004-03-26 08:35:11 51°16.068 2°54.748 7.757435 3.460804 33.338633 14.253144
2004-03-26 08:35:17 51°16.069 2°54.739 7.761271 3.460909 33.339761 14.017178
2004-03-26 08:35:21 51°16.07 2°54.733 7.758357 3.460383 33.333323 13.241862
2004-03-26 08:35:27 51°16.07 2°54.724 7.757678 3.460277 33.331394 15.399264
2004-03-26 08:35:31 51°16.071 2°54.718 7.761853 3.460804 33.337832 13.680084
2004-03-26 08:35:37 51°16.071 2°54.709 7.76161 3.460593 33.333172 13.848631
2004-03-26 08:35:41 51°16.072 2°54.703 7.76161 3.460593 33.333172 13.848631
2004-03-26 08:35:47 51°16.073 2°54.695 7.761271 3.460699 33.335903 13.410409
2004-03-26 08:35:52 51°16.073 2°54.687 7.763989 3.460804 33.335427 13.646375
2004-03-26 08:35:56 51°16.074 2°54.681 7.761271 3.460593 33.333172 13.781212
2004-03-26 08:36:01 51°16.074 2°54.674 7.765203 3.460593 33.332371 13.882341
2004-03-26 08:36:07 51°16.075 2°54.665 7.765349 3.460277 33.326586 13.140734
2004-03-26 08:36:11 51°16.075 2°54.658 7.765349 3.460277 33.326586 13.140734
2004-03-26 08:36:17 51°16.076 2°54.649 7.765349 3.460277 33.325785 13.882341
2004-03-26 08:36:22 51°16.077 2°54.642 7.765058 3.460593 33.329165 13.713794
2004-03-26 08:36:27 51°16.077 2°54.635 7.763747 3.460277 33.325785 13.680084
2004-03-26 08:36:31 51°16.078 2°54.629 7.763018 3.460172 33.324658 12.938477
2004-03-26 08:36:37 51°16.078 2°54.62 7.764572 3.460277 33.324983 12.837349
2004-03-26 08:36:41 51°16.079 2°54.614 7.764572 3.460277 33.324983 12.837349
2004-03-26 08:36:47 51°16.08 2°54.605 7.765009 3.460066 33.321127 13.241862
2004-03-26 08:36:52 51°16.08 2°54.597 7.764572 3.459961 33.320802 13.208153
2004-03-26 08:36:57 51°16.081 2°54.589 7.765737 3.459961 33.320001 12.80364
2004-03-26 08:37:01 51°16.081 2°54.583 7.765786 3.45975 33.318548 12.76993
2004-03-26 08:37:07 51°16.082 2°54.574 7.767339 3.459118 33.312588 13.174443
2004-03-26 08:37:12 51°16.083 2°54.567 7.767339 3.459118 33.312588 13.174443
2004-03-26 08:37:17 51°16.083 2°54.559 7.766805 3.458908 33.309533 12.297999
2004-03-26 08:37:21 51°16.084 2°54.553 7.768116 3.459329 33.314041 13.073315
2004-03-26 08:37:27 51°16.085 2°54.544 7.769475 3.459224 33.312113 13.34299
2004-03-26 08:37:32 51°16.085 2°54.537 7.770058 3.458908 33.307131 12.837349
2004-03-26 08:37:37 51°16.086 2°54.529 7.773311 3.458697 33.305678 12.938477
2004-03-26 08:37:41 51°16.086 2°54.523 7.773311 3.458697 33.305678 12.938477
2004-03-26 08:37:45 51°16.087 2°54.517 7.776611 3.458381 33.302298 12.432836
2004-03-26 08:37:52 51°16.088 2°54.507 7.773893 3.457854 33.294264 12.129452
2004-03-26 08:37:56 51°16.089 2°54.501 7.774039 3.45817 33.296843 13.073315
2004-03-26 08:38:01 51°16.089 2°54.493 7.776903 3.457643 33.29041 13.275571
2004-03-26 08:38:07 51°16.09 2°54.485 7.779038 3.457854 33.291063 13.073315
2004-03-26 08:38:12 51°16.091 2°54.477 7.779038 3.457854 33.291063 13.073315
2004-03-26 08:38:17 51°16.092 2°54.47 7.776854 3.45817 33.292842 12.702512
2004-03-26 08:38:21 51°16.093 2°54.464 7.77865 3.458065 33.292515 13.612665
2004-03-26 08:38:27 51°16.094 2°54.455 7.77831 3.457959 33.288989 13.680084
2004-03-26 08:38:31 51°16.094 2°54.449 7.777825 3.458486 33.29382 13.680084
2004-03-26 08:38:37 51°16.095 2°54.441 7.778844 3.458275 33.290768 13.309281
2004-03-26 08:38:41 51°16.096 2°54.435 7.778456 3.458697 33.296073 12.80364
2004-03-26 08:38:47 51°16.097 2°54.426 7.778456 3.458697 33.296073 12.80364
2004-03-26 08:38:51 51°16.098 2°54.42 7.778262 3.458591 33.294947 12.871059
2004-03-26 08:38:57 51°16.099 2°54.412 7.778893 3.458697 33.294473 12.76993
2004-03-26 08:39:01 51°16.1 2°54.406 7.778456 3.459224 33.300105 13.241862
2004-03-26 08:39:07 51°16.101 2°54.397 7.779864 3.459329 33.302832 14.792494
2004-03-26 08:39:12 51°16.102 2°54.39 7.779864 3.459329 33.302832 14.792494
2004-03-26 08:39:17 51°16.102 2°54.383 7.780349 3.459434 33.302357 13.039606